Observation data for Van Horn on 06/15/2019      Previous  Date  Next       Current Mesonet Observations  Soil Data  Daily Summary Page  Observations in Plain Language
KVA1 150500Z 23007KT 27/10 A2995 RMK A01 T02670097  RH  034%=      5-min Rain = 0
KVA1 150501Z 23008KT 27/10 A2995 RMK A01 T02670097  RH  034%=      5-min Rain = 0
KVA1 150502Z 23007KT 27/10 A2995 RMK A01 T02670097  RH  034%=      5-min Rain = 0
KVA1 150503Z 23007KT 27/10 A2995 RMK A01 T02680097  RH  034%=      5-min Rain = 0
KVA1 150504Z 23008KT 27/10 A2995 RMK A01 T02690097  RH  034%=      5-min Rain = 0
KVA1 150505Z 22007KT 27/10 A2995 RMK A01 T02700096  RH  034%=      5-min Rain = 0
KVA1 150506Z 22007KT 27/10 A2995 RMK A01 T02710096  RH  033%=      5-min Rain = 0
KVA1 150507Z 22007KT 27/10 A2995 RMK A01 T02720097  RH  033%=      5-min Rain = 0
KVA1 150508Z 21007KT 27/10 A2995 RMK A01 T02720097  RH  033%=      5-min Rain = 0
KVA1 150509Z 21008KT 27/10 A2995 RMK A01 T02710096  RH  033%=      5-min Rain = 0
KVA1 150510Z 21007KT 27/10 A2995 RMK A01 T02700096  RH  033%=      5-min Rain = 0
KVA1 150511Z 21008KT 27/10 A2996 RMK A01 T02700095  RH  033%=      5-min Rain = 0
KVA1 150512Z 21007KT 27/09 A2996 RMK A01 T02690094  RH  033%=      5-min Rain = 0
KVA1 150513Z 21009KT 27/09 A2996 RMK A01 T02690093  RH  033%=      5-min Rain = 0
KVA1 150514Z 21009KT 27/09 A2996 RMK A01 T02690092  RH  033%=      5-min Rain = 0
KVA1 150515Z 21008KT 27/09 A2996 RMK A01 T02700092  RH  033%=      5-min Rain = 0
KVA1 150516Z 21008KT 27/09 A2996 RMK A01 T02700092  RH  033%=      5-min Rain = 0
KVA1 150517Z 21008KT 27/09 A2996 RMK A01 T02710092  RH  032%=      5-min Rain = 0
KVA1 150518Z 21008KT 27/09 A2996 RMK A01 T02700091  RH  032%=      5-min Rain = 0
KVA1 150519Z 21009KT 27/09 A2996 RMK A01 T02700091  RH  032%=      5-min Rain = 0
KVA1 150520Z 21007KT 27/09 A2996 RMK A01 T02700091  RH  032%=      5-min Rain = 0
KVA1 150521Z 20008KT 27/09 A2996 RMK A01 T02700091  RH  032%=      5-min Rain = 0
KVA1 150522Z 20008KT 27/09 A2996 RMK A01 T02690091  RH  033%=      5-min Rain = 0
KVA1 150523Z 21009KT 27/09 A2996 RMK A01 T02690091  RH  033%=      5-min Rain = 0
KVA1 150524Z 20008KT 27/09 A2996 RMK A01 T02690091  RH  033%=      5-min Rain = 0
KVA1 150525Z 20009KT 27/09 A2996 RMK A01 T02680091  RH  033%=      5-min Rain = 0
KVA1 150526Z 20009KT 27/09 A2996 RMK A01 T02690091  RH  033%=      5-min Rain = 0
KVA1 150527Z 21009KT 27/09 A2996 RMK A01 T02690091  RH  033%=      5-min Rain = 0
KVA1 150528Z 21008KT 27/09 A2996 RMK A01 T02690090  RH  033%=      5-min Rain = 0
KVA1 150529Z 20009KT 27/09 A2996 RMK A01 T02690090  RH  033%=      5-min Rain = 0
KVA1 150530Z 20009KT 27/09 A2996 RMK A01 T02680090  RH  033%=      5-min Rain = 0
KVA1 150531Z 20010KT 27/09 A2996 RMK A01 T02670091  RH  033%=      5-min Rain = 0
KVA1 150532Z 20009KT 27/09 A2996 RMK A01 T02670091  RH  033%=      5-min Rain = 0
KVA1 150533Z 20009KT 27/09 A2996 RMK A01 T02670091  RH  033%=      5-min Rain = 0
KVA1 150534Z 20011KT 27/09 A2996 RMK A01 T02670091  RH  033%=      5-min Rain = 0
KVA1 150535Z 21010KT 27/09 A2996 RMK A01 T02670091  RH  033%=      5-min Rain = 0
KVA1 150536Z 20009KT 27/09 A2996 RMK A01 T02670091  RH  033%=      5-min Rain = 0
KVA1 150537Z 19010KT 27/09 A2996 RMK A01 T02670092  RH  033%=      5-min Rain = 0
KVA1 150538Z 20009KT 27/09 A2996 RMK A01 T02660091  RH  033%=      5-min Rain = 0
KVA1 150539Z 20010KT 27/09 A2996 RMK A01 T02660092  RH  033%=      5-min Rain = 0
KVA1 150540Z 19012KT 27/09 A2996 RMK A01 T02660092  RH  033%=      5-min Rain = 0
KVA1 150541Z 20010KT 27/09 A2996 RMK A01 T02660092  RH  033%=      5-min Rain = 0
KVA1 150542Z 20011KT 27/09 A2996 RMK A01 T02650092  RH  033%=      5-min Rain = 0
KVA1 150543Z 19012KT 27/09 A2996 RMK A01 T02650092  RH  034%=      5-min Rain = 0
KVA1 150544Z 20012KT 27/09 A2996 RMK A01 T02650092  RH  034%=      5-min Rain = 0
KVA1 150545Z 19011KT 27/09 A2996 RMK A01 T02650092  RH  034%=      5-min Rain = 0
KVA1 150546Z 19010KT 26/09 A2996 RMK A01 T02640092  RH  034%=      5-min Rain = 0
KVA1 150547Z 19011KT 26/09 A2996 RMK A01 T02640092  RH  034%=      5-min Rain = 0
KVA1 150548Z 19010KT 26/09 A2996 RMK A01 T02630093  RH  034%=      5-min Rain = 0
KVA1 150549Z 19011KT 26/09 A2996 RMK A01 T02630092  RH  034%=      5-min Rain = 0
KVA1 150550Z 20011KT 26/09 A2996 RMK A01 T02620092  RH  034%=      5-min Rain = 0
KVA1 150551Z 20010KT 26/09 A2996 RMK A01 T02620093  RH  034%=      5-min Rain = 0
KVA1 150552Z 20010KT 26/09 A2996 RMK A01 T02620093  RH  034%=      5-min Rain = 0
KVA1 150553Z 20010KT 26/09 A2996 RMK A01 T02610092  RH  034%=      5-min Rain = 0
KVA1 150554Z 20011KT 26/09 A2996 RMK A01 T02610093  RH  035%=      5-min Rain = 0
KVA1 150555Z 20010KT 26/09 A2996 RMK A01 T02610093  RH  035%=      5-min Rain = 0
KVA1 150556Z 19009KT 26/09 A2996 RMK A01 T02610093  RH  035%=      5-min Rain = 0
KVA1 150557Z 19011KT 26/09 A2996 RMK A01 T02600093  RH  035%=      5-min Rain = 0
KVA1 150558Z 19010KT 26/09 A2996 RMK A01 T02610093  RH  035%=      5-min Rain = 0
KVA1 150559Z 19009KT 26/09 A2996 RMK A01 T02600093  RH  035%=      5-min Rain = 0
KVA1 150600Z 19009KT 26/09 A2996 RMK A01 T02600093  RH  035%=      5-min Rain = 0
KVA1 150601Z 20010KT 26/09 A2996 RMK A01 T02600093  RH  035%=      5-min Rain = 0
KVA1 150602Z 20009KT 26/09 A2996 RMK A01 T02600093  RH  035%=      5-min Rain = 0
KVA1 150603Z 20011KT 26/09 A2996 RMK A01 T02590093  RH  035%=      5-min Rain = 0
KVA1 150604Z 20010KT 26/09 A2996 RMK A01 T02590094  RH  035%=      5-min Rain = 0
KVA1 150605Z 20010KT 26/09 A2996 RMK A01 T02590094  RH  035%=      5-min Rain = 0
KVA1 150606Z 20010KT 26/09 A2996 RMK A01 T02580094  RH  035%=      5-min Rain = 0
KVA1 150607Z 20013KT 26/09 A2996 RMK A01 T02580094  RH  035%=      5-min Rain = 0
KVA1 150608Z 20011KT 26/09 A2996 RMK A01 T02580094  RH  035%=      5-min Rain = 0
KVA1 150609Z 20011KT 26/09 A2996 RMK A01 T02580094  RH  035%=      5-min Rain = 0
KVA1 150610Z 20012KT 26/09 A2996 RMK A01 T02580093  RH  035%=      5-min Rain = 0
KVA1 150611Z 20010KT 26/09 A2996 RMK A01 T02580093  RH  035%=      5-min Rain = 0
KVA1 150612Z 20010KT 26/09 A2996 RMK A01 T02580094  RH  035%=      5-min Rain = 0
KVA1 150613Z 20011KT 26/09 A2996 RMK A01 T02580094  RH  035%=      5-min Rain = 0
KVA1 150614Z 19011KT 26/09 A2996 RMK A01 T02580094  RH  035%=      5-min Rain = 0
KVA1 150615Z 20011KT 26/09 A2996 RMK A01 T02580094  RH  035%=      5-min Rain = 0
KVA1 150616Z 20010KT 26/09 A2996 RMK A01 T02580094  RH  035%=      5-min Rain = 0
KVA1 150617Z 20011KT 26/09 A2996 RMK A01 T02580094  RH  035%=      5-min Rain = 0
KVA1 150618Z 20010KT 26/09 A2996 RMK A01 T02580094  RH  036%=      5-min Rain = 0
KVA1 150619Z 19010G16KT 26/09 A2996 RMK A01 T02570094  RH  036%=      5-min Rain = 0
KVA1 150620Z 19012KT 26/09 A2996 RMK A01 T02570094  RH  036%=      5-min Rain = 0
KVA1 150621Z 19014KT 26/10 A2996 RMK A01 T02570095  RH  036%=      5-min Rain = 0
KVA1 150622Z 19011KT 26/10 A2996 RMK A01 T02570095  RH  036%=      5-min Rain = 0
KVA1 150623Z 19012KT 26/10 A2996 RMK A01 T02570095  RH  036%=      5-min Rain = 0
KVA1 150624Z 19013KT 26/10 A2996 RMK A01 T02570096  RH  036%=      5-min Rain = 0
KVA1 150625Z 19011KT 26/10 A2996 RMK A01 T02570095  RH  036%=      5-min Rain = 0
KVA1 150626Z 19012KT 26/10 A2996 RMK A01 T02570096  RH  036%=      5-min Rain = 0
KVA1 150627Z 19012KT 26/10 A2996 RMK A01 T02560096  RH  036%=      5-min Rain = 0
KVA1 150628Z 19014KT 26/10 A2996 RMK A01 T02560095  RH  036%=      5-min Rain = 0
KVA1 150629Z 19012KT 26/10 A2996 RMK A01 T02560095  RH  036%=      5-min Rain = 0
KVA1 150630Z 19011KT 26/10 A2996 RMK A01 T02560096  RH  036%=      5-min Rain = 0
KVA1 150631Z 20010KT 26/10 A2996 RMK A01 T02560095  RH  036%=      5-min Rain = 0
KVA1 150632Z 20011KT 26/10 A2996 RMK A01 T02560096  RH  036%=      5-min Rain = 0
KVA1 150633Z 20011KT 26/10 A2996 RMK A01 T02560095  RH  036%=      5-min Rain = 0
KVA1 150634Z 20010KT 26/10 A2996 RMK A01 T02550095  RH  036%=      5-min Rain = 0
KVA1 150635Z 20011KT 26/10 A2996 RMK A01 T02550095  RH  036%=      5-min Rain = 0
KVA1 150636Z 20012KT 26/10 A2996 RMK A01 T02550095  RH  036%=      5-min Rain = 0
KVA1 150637Z 20011KT 26/10 A2996 RMK A01 T02550095  RH  036%=      5-min Rain = 0
KVA1 150638Z 20011KT 26/10 A2996 RMK A01 T02550095  RH  036%=      5-min Rain = 0
KVA1 150639Z 20011KT 26/10 A2996 RMK A01 T02550095  RH  036%=      5-min Rain = 0
KVA1 150640Z 20011KT 26/10 A2996 RMK A01 T02550095  RH  036%=      5-min Rain = 0
KVA1 150641Z 20012KT 26/10 A2996 RMK A01 T02550095  RH  037%=      5-min Rain = 0
KVA1 150642Z 20011KT 26/10 A2996 RMK A01 T02550096  RH  036%=      5-min Rain = 0
KVA1 150643Z 20012KT 26/10 A2996 RMK A01 T02550096  RH  037%=      5-min Rain = 0
KVA1 150644Z 20011KT 26/10 A2996 RMK A01 T02550095  RH  037%=      5-min Rain = 0
KVA1 150645Z 21010KT 26/10 A2996 RMK A01 T02550096  RH  037%=      5-min Rain = 0
KVA1 150646Z 21009KT 25/10 A2996 RMK A01 T02540097  RH  037%=      5-min Rain = 0
KVA1 150647Z 20010KT 25/10 A2996 RMK A01 T02540097  RH  037%=      5-min Rain = 0
KVA1 150648Z 20012KT 25/10 A2996 RMK A01 T02540097  RH  037%=      5-min Rain = 0
KVA1 150649Z 20010KT 25/10 A2996 RMK A01 T02530098  RH  037%=      5-min Rain = 0
KVA1 150650Z 21010KT 25/10 A2996 RMK A01 T02530098  RH  037%=      5-min Rain = 0
KVA1 150651Z 20009KT 25/10 A2996 RMK A01 T02520098  RH  038%=      5-min Rain = 0
KVA1 150652Z 21010KT 25/10 A2996 RMK A01 T02520099  RH  038%=      5-min Rain = 0
KVA1 150653Z 21010KT 25/10 A2996 RMK A01 T02520100  RH  038%=      5-min Rain = 0
KVA1 150654Z 20010KT 25/10 A2996 RMK A01 T02510100  RH  039%=      5-min Rain = 0
KVA1 150655Z 21010KT 25/10 A2996 RMK A01 T02510101  RH  039%=      5-min Rain = 0
KVA1 150656Z 20010KT 25/10 A2996 RMK A01 T02510101  RH  039%=      5-min Rain = 0
KVA1 150657Z 20011KT 25/10 A2996 RMK A01 T02500102  RH  039%=      5-min Rain = 0
KVA1 150658Z 20011KT 25/10 A2996 RMK A01 T02500102  RH  039%=      5-min Rain = 0
KVA1 150659Z 20011KT 25/10 A2996 RMK A01 T02500103  RH  039%=      5-min Rain = 0
KVA1 150700Z 20010KT 25/10 A2996 RMK A01 T02500103  RH  040%=      5-min Rain = 0
KVA1 150701Z 20011KT 25/10 A2996 RMK A01 T02490104  RH  040%=      5-min Rain = 0
KVA1 150702Z 20011KT 25/10 A2996 RMK A01 T02490104  RH  040%=      5-min Rain = 0
KVA1 150703Z 20011KT 25/11 A2996 RMK A01 T02490105  RH  040%=      5-min Rain = 0
KVA1 150704Z 20011KT 25/11 A2996 RMK A01 T02490105  RH  040%=      5-min Rain = 0
KVA1 150705Z 20011KT 25/11 A2996 RMK A01 T02490105  RH  040%=      5-min Rain = 0
KVA1 150706Z 20010KT 25/11 A2996 RMK A01 T02480105  RH  040%=      5-min Rain = 0
KVA1 150707Z 20010KT 25/11 A2996 RMK A01 T02480105  RH  041%=      5-min Rain = 0
KVA1 150708Z 20010KT 25/11 A2996 RMK A01 T02470106  RH  041%=      5-min Rain = 0
KVA1 150709Z 20010KT 25/11 A2996 RMK A01 T02470106  RH  041%=      5-min Rain = 0
KVA1 150710Z 21011KT 25/11 A2996 RMK A01 T02470106  RH  041%=      5-min Rain = 0
KVA1 150711Z 21010KT 25/11 A2996 RMK A01 T02470106  RH  041%=      5-min Rain = 0
KVA1 150712Z 20011KT 25/11 A2996 RMK A01 T02470106  RH  041%=      5-min Rain = 0
KVA1 150713Z 20010KT 25/11 A2996 RMK A01 T02470107  RH  041%=      5-min Rain = 0
KVA1 150714Z 20013KT 25/11 A2996 RMK A01 T02470106  RH  041%=      5-min Rain = 0
KVA1 150715Z 20012KT 25/11 A2996 RMK A01 T02470106  RH  041%=      5-min Rain = 0
KVA1 150716Z 20012KT 25/11 A2996 RMK A01 T02470107  RH  041%=      5-min Rain = 0
KVA1 150717Z 20011KT 25/11 A2996 RMK A01 T02470107  RH  041%=      5-min Rain = 0
KVA1 150718Z 20012KT 25/11 A2996 RMK A01 T02470107  RH  041%=      5-min Rain = 0
KVA1 150719Z 20012KT 25/11 A2996 RMK A01 T02470107  RH  041%=      5-min Rain = 0
KVA1 150720Z 21012KT 25/11 A2996 RMK A01 T02470107  RH  041%=      5-min Rain = 0
KVA1 150721Z 20013KT 25/11 A2996 RMK A01 T02470107  RH  041%=      5-min Rain = 0
KVA1 150722Z 20014KT 25/11 A2996 RMK A01 T02470108  RH  041%=      5-min Rain = 0
KVA1 150723Z 21011KT 25/11 A2996 RMK A01 T02480108  RH  041%=      5-min Rain = 0
KVA1 150724Z 20012KT 25/11 A2996 RMK A01 T02470108  RH  041%=      5-min Rain = 0
KVA1 150725Z 20011KT 25/11 A2996 RMK A01 T02470108  RH  041%=      5-min Rain = 0
KVA1 150726Z 20012KT 25/11 A2996 RMK A01 T02470108  RH  042%=      5-min Rain = 0
KVA1 150727Z 20012KT 25/11 A2996 RMK A01 T02470109  RH  042%=      5-min Rain = 0
KVA1 150728Z 20011KT 25/11 A2996 RMK A01 T02470109  RH  042%=      5-min Rain = 0
KVA1 150729Z 20012KT 25/11 A2996 RMK A01 T02470109  RH  042%=      5-min Rain = 0
KVA1 150730Z 20012KT 25/11 A2996 RMK A01 T02470110  RH  042%=      5-min Rain = 0
KVA1 150731Z 20012KT 25/11 A2996 RMK A01 T02460110  RH  042%=      5-min Rain = 0
KVA1 150732Z 19013KT 25/11 A2995 RMK A01 T02460110  RH  042%=      5-min Rain = 0
KVA1 150733Z 20012KT 25/11 A2996 RMK A01 T02470111  RH  042%=      5-min Rain = 0
KVA1 150734Z 20013KT 25/11 A2996 RMK A01 T02480111  RH  042%=      5-min Rain = 0
KVA1 150735Z 20010KT 25/11 A2996 RMK A01 T02480111  RH  042%=      5-min Rain = 0
KVA1 150736Z 20010KT 25/11 A2996 RMK A01 T02470111  RH  042%=      5-min Rain = 0
KVA1 150737Z 20011KT 25/11 A2996 RMK A01 T02460111  RH  043%=      5-min Rain = 0
KVA1 150738Z 20011KT 25/11 A2996 RMK A01 T02460111  RH  043%=      5-min Rain = 0
KVA1 150739Z 20012KT 25/11 A2996 RMK A01 T02460112  RH  043%=      5-min Rain = 0
KVA1 150740Z 20013KT 25/11 A2996 RMK A01 T02460112  RH  043%=      5-min Rain = 0
KVA1 150741Z 20014KT 25/11 A2996 RMK A01 T02470112  RH  043%=      5-min Rain = 0
KVA1 150742Z 20015KT 25/11 A2996 RMK A01 T02470113  RH  043%=      5-min Rain = 0
KVA1 150743Z 20013KT 25/11 A2996 RMK A01 T02470113  RH  043%=      5-min Rain = 0
KVA1 150744Z 21013KT 25/11 A2996 RMK A01 T02470113  RH  043%=      5-min Rain = 0
KVA1 150745Z 21012KT 25/11 A2996 RMK A01 T02460113  RH  043%=      5-min Rain = 0
KVA1 150746Z 20012KT 25/11 A2996 RMK A01 T02460113  RH  043%=      5-min Rain = 0
KVA1 150747Z 19014KT 25/11 A2996 RMK A01 T02460114  RH  044%=      5-min Rain = 0
KVA1 150748Z 20014KT 25/11 A2996 RMK A01 T02460114  RH  044%=      5-min Rain = 0
KVA1 150749Z 20012KT 25/11 A2996 RMK A01 T02470114  RH  043%=      5-min Rain = 0
KVA1 150750Z 20012KT 25/11 A2996 RMK A01 T02470114  RH  043%=      5-min Rain = 0
KVA1 150751Z 20012KT 25/12 A2996 RMK A01 T02460115  RH  044%=      5-min Rain = 0
KVA1 150752Z 20014KT 25/12 A2996 RMK A01 T02460115  RH  044%=      5-min Rain = 0
KVA1 150753Z 20011KT 25/12 A2996 RMK A01 T02460115  RH  044%=      5-min Rain = 0
KVA1 150754Z 20012KT 25/12 A2996 RMK A01 T02460115  RH  044%=      5-min Rain = 0
KVA1 150755Z 20013KT 25/12 A2996 RMK A01 T02460116  RH  044%=      5-min Rain = 0
KVA1 150756Z 20012KT 25/12 A2996 RMK A01 T02460117  RH  044%=      5-min Rain = 0
KVA1 150757Z 20011KT 25/12 A2996 RMK A01 T02460117  RH  044%=      5-min Rain = 0
KVA1 150758Z 20012KT 25/12 A2996 RMK A01 T02460119  RH  045%=      5-min Rain = 0
KVA1 150759Z 21012KT 25/12 A2996 RMK A01 T02460120  RH  045%=      5-min Rain = 0
KVA1 150800Z 21013KT 25/12 A2996 RMK A01 T02460121  RH  045%=      5-min Rain = 0
KVA1 150801Z 21009KT 25/12 A2996 RMK A01 T02460121  RH  045%=      5-min Rain = 0
KVA1 150802Z 20010KT 25/12 A2996 RMK A01 T02460121  RH  046%=      5-min Rain = 0
KVA1 150803Z 20011KT 25/12 A2996 RMK A01 T02450123  RH  046%=      5-min Rain = 0
KVA1 150804Z 20011KT 25/12 A2996 RMK A01 T02450123  RH  047%=      5-min Rain = 0
KVA1 150805Z 20011KT 24/13 A2996 RMK A01 T02440125  RH  047%=      5-min Rain = 0
KVA1 150806Z 21012KT 24/13 A2996 RMK A01 T02440125  RH  047%=      5-min Rain = 0
KVA1 150807Z 21011KT 24/13 A2996 RMK A01 T02440125  RH  047%=      5-min Rain = 0
KVA1 150808Z 20010KT 24/13 A2996 RMK A01 T02440125  RH  047%=      5-min Rain = 0
KVA1 150809Z 20012KT 24/13 A2996 RMK A01 T02430125  RH  048%=      5-min Rain = 0
KVA1 150810Z 20013KT 24/13 A2996 RMK A01 T02430127  RH  048%=      5-min Rain = 0
KVA1 150811Z 19016KT 24/13 A2996 RMK A01 T02430128  RH  049%=      5-min Rain = 0
KVA1 150812Z 19012KT 24/13 A2996 RMK A01 T02430130  RH  049%=      5-min Rain = 0
KVA1 150813Z 20012KT 24/13 A2996 RMK A01 T02430131  RH  049%=      5-min Rain = 0
KVA1 150814Z 20011KT 24/13 A2996 RMK A01 T02430131  RH  049%=      5-min Rain = 0
KVA1 150815Z 20013KT 24/13 A2996 RMK A01 T02430132  RH  050%=      5-min Rain = 0
KVA1 150816Z 20012KT 24/13 A2996 RMK A01 T02420134  RH  051%=      5-min Rain = 0
KVA1 150817Z 20012KT 24/13 A2996 RMK A01 T02420133  RH  050%=      5-min Rain = 0
KVA1 150818Z 21012KT 24/13 A2996 RMK A01 T02420133  RH  050%=      5-min Rain = 0
KVA1 150819Z 20011KT 24/13 A2996 RMK A01 T02420133  RH  051%=      5-min Rain = 0
KVA1 150820Z 20012G17KT 24/13 A2996 RMK A01 T02410133  RH  051%=      5-min Rain = 0
KVA1 150821Z 20013KT 24/13 A2996 RMK A01 T02410134  RH  051%=      5-min Rain = 0
KVA1 150822Z 20010KT 24/13 A2996 RMK A01 T02400134  RH  051%=      5-min Rain = 0
KVA1 150823Z 20013KT 24/14 A2996 RMK A01 T02400135  RH  052%=      5-min Rain = 0
KVA1 150824Z 19013G18KT 24/14 A2996 RMK A01 T02400136  RH  052%=      5-min Rain = 0
KVA1 150825Z 19011G16KT 24/14 A2996 RMK A01 T02400136  RH  052%=      5-min Rain = 0
KVA1 150826Z 19012KT 24/14 A2996 RMK A01 T02400136  RH  052%=      5-min Rain = 0
KVA1 150827Z 20011KT 24/14 A2996 RMK A01 T02410137  RH  052%=      5-min Rain = 0
KVA1 150828Z 19011G16KT 24/14 A2996 RMK A01 T02400137  RH  052%=      5-min Rain = 0
KVA1 150829Z 19013KT 24/14 A2996 RMK A01 T02400138  RH  053%=      5-min Rain = 0
KVA1 150830Z 19015KT 24/14 A2996 RMK A01 T02410138  RH  053%=      5-min Rain = 0
KVA1 150831Z 19015KT 24/14 A2996 RMK A01 T02410139  RH  053%=      5-min Rain = 0
KVA1 150832Z 19013KT 24/14 A2996 RMK A01 T02420139  RH  053%=      5-min Rain = 0
KVA1 150833Z 20011KT 24/14 A2996 RMK A01 T02410139  RH  053%=      5-min Rain = 0
KVA1 150834Z 20010KT 24/14 A2996 RMK A01 T02400139  RH  053%=      5-min Rain = 0
KVA1 150835Z 19012KT 24/14 A2996 RMK A01 T02390139  RH  053%=      5-min Rain = 0
KVA1 150836Z 19010KT 24/14 A2996 RMK A01 T02390139  RH  054%=      5-min Rain = 0
KVA1 150837Z 19012KT 24/14 A2996 RMK A01 T02390139  RH  054%=      5-min Rain = 0
KVA1 150838Z 19012KT 24/14 A2996 RMK A01 T02390140  RH  054%=      5-min Rain = 0
KVA1 150839Z 19013G18KT 24/14 A2996 RMK A01 T02400141  RH  054%=      5-min Rain = 0
KVA1 150840Z 19014KT 24/14 A2996 RMK A01 T02400141  RH  054%=      5-min Rain = 0
KVA1 150841Z 19014KT 24/14 A2996 RMK A01 T02400141  RH  054%=      5-min Rain = 0
KVA1 150842Z 19012KT 24/14 A2996 RMK A01 T02410141  RH  054%=      5-min Rain = 0
KVA1 150843Z 19012KT 24/14 A2996 RMK A01 T02410141  RH  054%=      5-min Rain = 0
KVA1 150844Z 20012KT 24/14 A2996 RMK A01 T02400141  RH  054%=      5-min Rain = 0
KVA1 150845Z 21012KT 24/14 A2996 RMK A01 T02400142  RH  054%=      5-min Rain = 0
KVA1 150846Z 20009KT 24/14 A2996 RMK A01 T02400141  RH  054%=      5-min Rain = 0
KVA1 150847Z 20008KT 24/14 A2996 RMK A01 T02390141  RH  054%=      5-min Rain = 0
KVA1 150848Z 19011G18KT 24/14 A2996 RMK A01 T02380141  RH  054%=      5-min Rain = 0
KVA1 150849Z 19013KT 24/14 A2996 RMK A01 T02380142  RH  055%=      5-min Rain = 0
KVA1 150850Z 19011KT 24/14 A2996 RMK A01 T02380141  RH  055%=      5-min Rain = 0
KVA1 150851Z 19013KT 24/14 A2996 RMK A01 T02380142  RH  055%=      5-min Rain = 0
KVA1 150852Z 19016KT 24/14 A2996 RMK A01 T02400142  RH  054%=      5-min Rain = 0
KVA1 150853Z 19015KT 24/14 A2996 RMK A01 T02410142  RH  054%=      5-min Rain = 0
KVA1 150854Z 20014KT 24/14 A2996 RMK A01 T02410142  RH  054%=      5-min Rain = 0
KVA1 150855Z 20014KT 24/14 A2996 RMK A01 T02400142  RH  054%=      5-min Rain = 0
KVA1 150856Z 19012KT 24/14 A2996 RMK A01 T02400142  RH  054%=      5-min Rain = 0
KVA1 150857Z 19012KT 24/14 A2996 RMK A01 T02390142  RH  054%=      5-min Rain = 0
KVA1 150858Z 19010KT 24/14 A2996 RMK A01 T02380141  RH  055%=      5-min Rain = 0
KVA1 150859Z 20011KT 24/14 A2996 RMK A01 T02390142  RH  055%=      5-min Rain = 0
KVA1 150900Z 20009KT 24/14 A2996 RMK A01 T02380142  RH  055%=      5-min Rain = 0
KVA1 150901Z 20009KT 24/14 A2996 RMK A01 T02380141  RH  055%=      5-min Rain = 0
KVA1 150902Z 20010G15KT 24/14 A2996 RMK A01 T02390141  RH  054%=      5-min Rain = 0
KVA1 150903Z 20011KT 24/14 A2996 RMK A01 T02390141  RH  054%=      5-min Rain = 0
KVA1 150904Z 20011G16KT 24/14 A2996 RMK A01 T02390142  RH  055%=      5-min Rain = 0
KVA1 150905Z 19014G21KT 24/14 A2996 RMK A01 T02380141  RH  055%=      5-min Rain = 0
KVA1 150906Z 19014KT 24/14 A2996 RMK A01 T02380141  RH  055%=      5-min Rain = 0
KVA1 150907Z 19011KT 24/14 A2996 RMK A01 T02390141  RH  054%=      5-min Rain = 0
KVA1 150908Z 19012KT 24/14 A2996 RMK A01 T02390141  RH  054%=      5-min Rain = 0
KVA1 150909Z 19012KT 24/14 A2997 RMK A01 T02380141  RH  055%=      5-min Rain = 0
KVA1 150910Z 19010KT 24/14 A2997 RMK A01 T02380142  RH  055%=      5-min Rain = 0
KVA1 150911Z 18014KT 24/14 A2996 RMK A01 T02380142  RH  055%=      5-min Rain = 0
KVA1 150912Z 17014G20KT 24/14 A2996 RMK A01 T02390142  RH  055%=      5-min Rain = 0
KVA1 150913Z 18017KT 24/14 A2996 RMK A01 T02400140  RH  054%=      5-min Rain = 0
KVA1 150914Z 19013KT 24/14 A2997 RMK A01 T02420142  RH  054%=      5-min Rain = 0
KVA1 150915Z 21013KT 24/14 A2997 RMK A01 T02420143  RH  054%=      5-min Rain = 0
KVA1 150916Z 21011KT 24/14 A2997 RMK A01 T02410143  RH  054%=      5-min Rain = 0
KVA1 150917Z 20012KT 24/14 A2997 RMK A01 T02400143  RH  055%=      5-min Rain = 0
KVA1 150918Z 21013KT 24/14 A2997 RMK A01 T02390143  RH  055%=      5-min Rain = 0
KVA1 150919Z 21010KT 24/14 A2997 RMK A01 T02380144  RH  055%=      5-min Rain = 0
KVA1 150920Z 21009KT 24/14 A2997 RMK A01 T02380144  RH  055%=      5-min Rain = 0
KVA1 150921Z 21009KT 24/14 A2997 RMK A01 T02380144  RH  055%=      5-min Rain = 0
KVA1 150922Z 22008KT 24/14 A2997 RMK A01 T02380144  RH  056%=      5-min Rain = 0
KVA1 150923Z 21010KT 24/14 A2997 RMK A01 T02370144  RH  056%=      5-min Rain = 0
KVA1 150924Z 20007KT 24/14 A2997 RMK A01 T02370144  RH  056%=      5-min Rain = 0
KVA1 150925Z 19006KT 24/14 A2997 RMK A01 T02360144  RH  056%=      5-min Rain = 0
KVA1 150926Z 19011KT 24/15 A2997 RMK A01 T02360145  RH  057%=      5-min Rain = 0
KVA1 150927Z 19009G14KT 24/15 A2997 RMK A01 T02360145  RH  057%=      5-min Rain = 0
KVA1 150928Z 19010KT 24/15 A2997 RMK A01 T02360145  RH  057%=      5-min Rain = 0
KVA1 150929Z 18012KT 24/15 A2997 RMK A01 T02350145  RH  057%=      5-min Rain = 0
KVA1 150930Z 18016KT 24/15 A2997 RMK A01 T02360145  RH  057%=      5-min Rain = 0
KVA1 150931Z 18013G18KT 24/15 A2997 RMK A01 T02360145  RH  057%=      5-min Rain = 0
KVA1 150932Z 19012KT 24/15 A2997 RMK A01 T02370145  RH  056%=      5-min Rain = 0
KVA1 150933Z 19011KT 24/15 A2997 RMK A01 T02370146  RH  056%=      5-min Rain = 0
KVA1 150934Z 19011G16KT 24/15 A2997 RMK A01 T02370145  RH  057%=      5-min Rain = 0
KVA1 150935Z 18016G21KT 24/15 A2997 RMK A01 T02360146  RH  057%=      5-min Rain = 0
KVA1 150936Z 18017KT 24/15 A2997 RMK A01 T02360146  RH  057%=      5-min Rain = 0
KVA1 150937Z 19018KT 24/15 A2997 RMK A01 T02370146  RH  057%=      5-min Rain = 0
KVA1 150938Z 18017KT 24/15 A2997 RMK A01 T02370146  RH  057%=      5-min Rain = 0
KVA1 150939Z 18014KT 24/15 A2997 RMK A01 T02370146  RH  057%=      5-min Rain = 0
KVA1 150940Z 18015KT 24/15 A2997 RMK A01 T02370146  RH  057%=      5-min Rain = 0
KVA1 150941Z 18016KT 24/15 A2997 RMK A01 T02370146  RH  057%=      5-min Rain = 0
KVA1 150942Z 19012KT 24/15 A2997 RMK A01 T02360146  RH  057%=      5-min Rain = 0
KVA1 150943Z 21010KT 24/15 A2997 RMK A01 T02360146  RH  057%=      5-min Rain = 0
KVA1 150944Z 19009KT 24/15 A2997 RMK A01 T02360147  RH  057%=      5-min Rain = 0
KVA1 150945Z 20011KT 24/15 A2997 RMK A01 T02360147  RH  057%=      5-min Rain = 0
KVA1 150946Z 19010KT 24/15 A2997 RMK A01 T02360147  RH  057%=      5-min Rain = 0
KVA1 150947Z 18008KT 24/15 A2997 RMK A01 T02350147  RH  057%=      5-min Rain = 0
KVA1 150948Z 19012KT 24/15 A2997 RMK A01 T02350147  RH  058%=      5-min Rain = 0
KVA1 150949Z 19013KT 24/15 A2997 RMK A01 T02350147  RH  058%=      5-min Rain = 0
KVA1 150950Z 19013KT 24/15 A2997 RMK A01 T02350148  RH  058%=      5-min Rain = 0
KVA1 150951Z 19012KT 23/15 A2997 RMK A01 T02340148  RH  058%=      5-min Rain = 0
KVA1 150952Z 19013KT 23/15 A2998 RMK A01 T02340148  RH  059%=      5-min Rain = 0
KVA1 150953Z 20009KT 23/15 A2998 RMK A01 T02330148  RH  059%=      5-min Rain = 0
KVA1 150954Z 19009KT 23/15 A2998 RMK A01 T02330148  RH  059%=      5-min Rain = 0
KVA1 150955Z 19011KT 23/15 A2998 RMK A01 T02320149  RH  059%=      5-min Rain = 0
KVA1 150956Z 19013KT 23/15 A2998 RMK A01 T02310149  RH  060%=      5-min Rain = 0
KVA1 150957Z 19012KT 23/15 A2998 RMK A01 T02310149  RH  060%=      5-min Rain = 0
KVA1 150958Z 19012KT 23/15 A2998 RMK A01 T02310150  RH  060%=      5-min Rain = 0
KVA1 150959Z 19013KT 23/15 A2998 RMK A01 T02310150  RH  060%=      5-min Rain = 0
KVA1 151000Z 18015KT 23/15 A2998 RMK A01 T02310150  RH  060%=      5-min Rain = 0
KVA1 151001Z 20013G18KT 23/15 A2998 RMK A01 T02310151  RH  061%=      5-min Rain = 0
KVA1 151002Z 20012KT 23/15 A2998 RMK A01 T02310151  RH  061%=      5-min Rain = 0
KVA1 151003Z 20012KT 23/15 A2998 RMK A01 T02300151  RH  061%=      5-min Rain = 0
KVA1 151004Z 20011KT 23/15 A2998 RMK A01 T02300151  RH  061%=      5-min Rain = 0
KVA1 151005Z 20010KT 23/15 A2998 RMK A01 T02300151  RH  061%=      5-min Rain = 0
KVA1 151006Z 19011KT 23/15 A2998 RMK A01 T02300151  RH  061%=      5-min Rain = 0
KVA1 151007Z 19012KT 23/15 A2998 RMK A01 T02290151  RH  061%=      5-min Rain = 0
KVA1 151008Z 20010KT 23/15 A2998 RMK A01 T02300151  RH  061%=      5-min Rain = 0
KVA1 151009Z 19009KT 23/15 A2998 RMK A01 T02300151  RH  061%=      5-min Rain = 0
KVA1 151010Z 20009KT 23/15 A2998 RMK A01 T02310152  RH  061%=      5-min Rain = 0
KVA1 151011Z 19011KT 23/15 A2998 RMK A01 T02300152  RH  061%=      5-min Rain = 0
KVA1 151012Z 19014KT 23/15 A2998 RMK A01 T02300153  RH  062%=      5-min Rain = 0
KVA1 151013Z 20012KT 23/15 A2998 RMK A01 T02300153  RH  062%=      5-min Rain = 0
KVA1 151014Z 20011KT 23/15 A2998 RMK A01 T02300153  RH  062%=      5-min Rain = 0
KVA1 151015Z 20010KT 23/15 A2998 RMK A01 T02290153  RH  062%=      5-min Rain = 0
KVA1 151016Z 20011KT 23/15 A2998 RMK A01 T02290153  RH  062%=      5-min Rain = 0
KVA1 151017Z 20010KT 23/15 A2998 RMK A01 T02280153  RH  062%=      5-min Rain = 0
KVA1 151018Z 21009KT 23/15 A2998 RMK A01 T02280153  RH  063%=      5-min Rain = 0
KVA1 151019Z 20010KT 23/15 A2998 RMK A01 T02280153  RH  063%=      5-min Rain = 0
KVA1 151020Z 20011KT 23/15 A2998 RMK A01 T02280153  RH  063%=      5-min Rain = 0
KVA1 151021Z 21009KT 23/15 A2998 RMK A01 T02280153  RH  063%=      5-min Rain = 0
KVA1 151022Z 20010KT 23/15 A2998 RMK A01 T02280153  RH  063%=      5-min Rain = 0
KVA1 151023Z 20011KT 23/15 A2998 RMK A01 T02270153  RH  063%=      5-min Rain = 0
KVA1 151024Z 19013G18KT 23/15 A2998 RMK A01 T02270153  RH  063%=      5-min Rain = 0
KVA1 151025Z 19013KT 23/15 A2998 RMK A01 T02270153  RH  063%=      5-min Rain = 0
KVA1 151026Z 19013KT 23/15 A2998 RMK A01 T02270153  RH  063%=      5-min Rain = 0
KVA1 151027Z 20013KT 23/15 A2998 RMK A01 T02270153  RH  063%=      5-min Rain = 0
KVA1 151028Z 20012KT 23/15 A2998 RMK A01 T02270154  RH  063%=      5-min Rain = 0
KVA1 151029Z 20008KT 23/15 A2999 RMK A01 T02270153  RH  063%=      5-min Rain = 0
KVA1 151030Z 19010G15KT 23/15 A2999 RMK A01 T02270154  RH  063%=      5-min Rain = 0
KVA1 151031Z 19010KT 23/15 A2999 RMK A01 T02260153  RH  063%=      5-min Rain = 0
KVA1 151032Z 20011KT 23/15 A2999 RMK A01 T02260153  RH  063%=      5-min Rain = 0
KVA1 151033Z 20010KT 23/15 A2999 RMK A01 T02260153  RH  063%=      5-min Rain = 0
KVA1 151034Z 20010KT 23/15 A2999 RMK A01 T02260154  RH  063%=      5-min Rain = 0
KVA1 151035Z 20009KT 23/15 A2999 RMK A01 T02260153  RH  064%=      5-min Rain = 0
KVA1 151036Z 19008KT 23/15 A2999 RMK A01 T02250153  RH  064%=      5-min Rain = 0
KVA1 151037Z 19012KT 23/15 A2999 RMK A01 T02260153  RH  064%=      5-min Rain = 0
KVA1 151038Z 20011KT 23/15 A2999 RMK A01 T02260153  RH  064%=      5-min Rain = 0
KVA1 151039Z 19010KT 23/15 A2999 RMK A01 T02260154  RH  064%=      5-min Rain = 0
KVA1 151040Z 19011KT 23/15 A2999 RMK A01 T02250154  RH  064%=      5-min Rain = 0
KVA1 151041Z 20012KT 23/15 A2999 RMK A01 T02250154  RH  064%=      5-min Rain = 0
KVA1 151042Z 20012KT 23/15 A2999 RMK A01 T02250153  RH  064%=      5-min Rain = 0
KVA1 151043Z 21009KT 23/15 A2999 RMK A01 T02250153  RH  064%=      5-min Rain = 0
KVA1 151044Z 21009KT 23/15 A2999 RMK A01 T02250153  RH  064%=      5-min Rain = 0
KVA1 151045Z 20008KT 23/15 A2999 RMK A01 T02250153  RH  064%=      5-min Rain = 0
KVA1 151046Z 20008KT 23/15 A2999 RMK A01 T02250154  RH  064%=      5-min Rain = 0
KVA1 151047Z 20010KT 23/15 A2999 RMK A01 T02250153  RH  064%=      5-min Rain = 0
KVA1 151048Z 20008KT 23/15 A2999 RMK A01 T02250154  RH  064%=      5-min Rain = 0
KVA1 151049Z 19009KT 22/15 A2999 RMK A01 T02240154  RH  064%=      5-min Rain = 0
KVA1 151050Z 20009KT 22/15 A2999 RMK A01 T02240153  RH  064%=      5-min Rain = 0
KVA1 151051Z 20008KT 22/15 A2999 RMK A01 T02240153  RH  064%=      5-min Rain = 0
KVA1 151052Z 20011KT 22/15 A2999 RMK A01 T02240153  RH  064%=      5-min Rain = 0
KVA1 151053Z 20011KT 22/15 A2999 RMK A01 T02240153  RH  064%=      5-min Rain = 0
KVA1 151054Z 21008KT 22/15 A2999 RMK A01 T02240153  RH  064%=      5-min Rain = 0
KVA1 151055Z 20008KT 22/15 A2999 RMK A01 T02240153  RH  064%=      5-min Rain = 0
KVA1 151056Z 20010KT 22/15 A2999 RMK A01 T02240153  RH  064%=      5-min Rain = 0
KVA1 151057Z 20010KT 22/15 A2999 RMK A01 T02240154  RH  064%=      5-min Rain = 0
KVA1 151058Z 19009KT 22/15 A2999 RMK A01 T02230153  RH  064%=      5-min Rain = 0
KVA1 151059Z 20007KT 22/15 A2999 RMK A01 T02240154  RH  064%=      5-min Rain = 0
KVA1 151100Z 20006KT 22/15 A2999 RMK A01 T02230153  RH  065%=      5-min Rain = 0
KVA1 151101Z 19009G14KT 22/15 A2999 RMK A01 T02230153  RH  065%=      5-min Rain = 0
KVA1 151102Z 19010KT 22/15 A2999 RMK A01 T02230153  RH  065%=      5-min Rain = 0
KVA1 151103Z 19009KT 22/15 A2999 RMK A01 T02230153  RH  064%=      5-min Rain = 0
KVA1 151104Z 19011KT 22/15 A2999 RMK A01 T02230153  RH  064%=      5-min Rain = 0
KVA1 151105Z 20010KT 22/15 A2999 RMK A01 T02230153  RH  064%=      5-min Rain = 0
KVA1 151106Z 19008KT 22/15 A2999 RMK A01 T02230153  RH  064%=      5-min Rain = 0
KVA1 151107Z 19009KT 22/15 A2999 RMK A01 T02230153  RH  064%=      5-min Rain = 0
KVA1 151108Z 19009KT 22/15 A2999 RMK A01 T02230153  RH  064%=      5-min Rain = 0
KVA1 151109Z 18010KT 22/15 A2999 RMK A01 T02230153  RH  064%=      5-min Rain = 0
KVA1 151110Z 18012KT 22/15 A2999 RMK A01 T02230151  RH  064%=      5-min Rain = 0
KVA1 151111Z 19009KT 22/15 A2999 RMK A01 T02240151  RH  063%=      5-min Rain = 0
KVA1 151112Z 19010KT 23/15 A2999 RMK A01 T02250151  RH  063%=      5-min Rain = 0
KVA1 151113Z 19009KT 23/15 A2999 RMK A01 T02250151  RH  063%=      5-min Rain = 0
KVA1 151114Z 19008KT 23/15 A2999 RMK A01 T02250151  RH  063%=      5-min Rain = 0
KVA1 151115Z 19009KT 23/15 A2999 RMK A01 T02250151  RH  063%=      5-min Rain = 0
KVA1 151116Z 19009KT 23/15 A2999 RMK A01 T02250151  RH  063%=      5-min Rain = 0
KVA1 151117Z 19008KT 23/15 A30 RMK A01 T02250151  RH  063%=      5-min Rain = 0
KVA1 151118Z 19008KT 23/15 A30 RMK A01 T02250151  RH  063%=      5-min Rain = 0
KVA1 151119Z 19009KT 22/15 A30 RMK A01 T02240151  RH  063%=      5-min Rain = 0
KVA1 151120Z 20010KT 22/15 A30 RMK A01 T02240151  RH  063%=      5-min Rain = 0
KVA1 151121Z 19009KT 22/15 A30 RMK A01 T02240151  RH  063%=      5-min Rain = 0
KVA1 151122Z 20008KT 22/15 A30 RMK A01 T02240151  RH  063%=      5-min Rain = 0
KVA1 151123Z 20007KT 22/15 A30 RMK A01 T02240151  RH  063%=      5-min Rain = 0
KVA1 151124Z 20008KT 22/15 A30 RMK A01 T02240151  RH  063%=      5-min Rain = 0
KVA1 151125Z 20008KT 22/15 A30 RMK A01 T02240151  RH  063%=      5-min Rain = 0
KVA1 151126Z 20008KT 22/15 A30 RMK A01 T02230151  RH  064%=      5-min Rain = 0
KVA1 151127Z 20009KT 22/15 A30 RMK A01 T02230151  RH  064%=      5-min Rain = 0
KVA1 151128Z 19009KT 22/15 A30 RMK A01 T02230151  RH  063%=      5-min Rain = 0
KVA1 151129Z 20008KT 22/15 A30 RMK A01 T02230150  RH  063%=      5-min Rain = 0
KVA1 151130Z 19008KT 22/15 A30 RMK A01 T02230150  RH  063%=      5-min Rain = 0
KVA1 151131Z 19008KT 22/15 A30 RMK A01 T02230151  RH  063%=      5-min Rain = 0
KVA1 151132Z 20008KT 22/15 A30 RMK A01 T02230150  RH  064%=      5-min Rain = 0
KVA1 151133Z 20009KT 22/15 A30 RMK A01 T02230150  RH  064%=      5-min Rain = 0
KVA1 151134Z 20009KT 22/15 A30 RMK A01 T02220150  RH  064%=      5-min Rain = 0
KVA1 151135Z 20011KT 22/15 A30 RMK A01 T02220151  RH  064%=      5-min Rain = 0
KVA1 151136Z 20010KT 22/15 A30 RMK A01 T02220151  RH  064%=      5-min Rain = 0
KVA1 151137Z 20011KT 22/15 A30 RMK A01 T02220151  RH  064%=      5-min Rain = 0
KVA1 151138Z 19009KT 22/15 A30 RMK A01 T02220151  RH  064%=      5-min Rain = 0
KVA1 151139Z 20010KT 22/15 A30 RMK A01 T02210151  RH  064%=      5-min Rain = 0
KVA1 151140Z 20009KT 22/15 A30 RMK A01 T02210151  RH  064%=      5-min Rain = 0
KVA1 151141Z 20009KT 22/15 A30 RMK A01 T02210151  RH  064%=      5-min Rain = 0
KVA1 151142Z 20009KT 22/15 A30 RMK A01 T02210151  RH  065%=      5-min Rain = 0
KVA1 151143Z 20010KT 22/15 A30 RMK A01 T02200151  RH  065%=      5-min Rain = 0
KVA1 151144Z 20009KT 22/15 A30 RMK A01 T02200151  RH  065%=      5-min Rain = 0
KVA1 151145Z 20010KT 22/15 A30 RMK A01 T02200151  RH  065%=      5-min Rain = 0
KVA1 151146Z 20010KT 22/15 A30 RMK A01 T02200151  RH  065%=      5-min Rain = 0
KVA1 151147Z 21010KT 22/15 A30 RMK A01 T02200151  RH  065%=      5-min Rain = 0
KVA1 151148Z 20010KT 22/15 A30 RMK A01 T02200151  RH  065%=      5-min Rain = 0
KVA1 151149Z 20008KT 22/15 A30 RMK A01 T02190151  RH  065%=      5-min Rain = 0
KVA1 151150Z 20010KT 22/15 A30 RMK A01 T02190151  RH  065%=      5-min Rain = 0
KVA1 151151Z 20008KT 22/15 A30 RMK A01 T02190151  RH  065%=      5-min Rain = 0
KVA1 151152Z 21009KT 22/15 A30 RMK A01 T02190151  RH  066%=      5-min Rain = 0
KVA1 151153Z 21008KT 22/15 A30 RMK A01 T02180151  RH  065%=      5-min Rain = 0
KVA1 151154Z 20009KT 22/15 A3001 RMK A01 T02180151  RH  066%=      5-min Rain = 0
KVA1 151155Z 21009KT 22/15 A3001 RMK A01 T02180151  RH  066%=      5-min Rain = 0
KVA1 151156Z 21009KT 22/15 A30 RMK A01 T02180151  RH  066%=      5-min Rain = 0
KVA1 151157Z 20008KT 22/15 A3001 RMK A01 T02180151  RH  066%=      5-min Rain = 0
KVA1 151158Z 21009KT 22/15 A3001 RMK A01 T02170151  RH  066%=      5-min Rain = 0
KVA1 151159Z 22007KT 22/15 A3001 RMK A01 T02170151  RH  066%=      5-min Rain = 0
KVA1 151200Z 21008KT 22/15 A3001 RMK A01 T02160151  RH  066%=      5-min Rain = 0
KVA1 151201Z 21009KT 22/15 A3001 RMK A01 T02160151  RH  066%=      5-min Rain = 0
KVA1 151202Z 21008KT 22/15 A3001 RMK A01 T02160151  RH  067%=      5-min Rain = 0
KVA1 151203Z 21008KT 22/15 A3001 RMK A01 T02150151  RH  067%=      5-min Rain = 0
KVA1 151204Z 21009KT 22/15 A3001 RMK A01 T02150151  RH  067%=      5-min Rain = 0
KVA1 151205Z 21007KT 22/15 A3001 RMK A01 T02150151  RH  067%=      5-min Rain = 0
KVA1 151206Z 22006KT 22/15 A3001 RMK A01 T02150150  RH  067%=      5-min Rain = 0
KVA1 151207Z 22008KT 22/15 A3001 RMK A01 T02150151  RH  067%=      5-min Rain = 0
KVA1 151208Z 21008KT 22/15 A3001 RMK A01 T02150150  RH  067%=      5-min Rain = 0
KVA1 151209Z 21009KT 22/15 A3001 RMK A01 T02150151  RH  067%=      5-min Rain = 0
KVA1 151210Z 21008KT 21/15 A3001 RMK A01 T02140150  RH  067%=      5-min Rain = 0
KVA1 151211Z 21008KT 22/15 A3001 RMK A01 T02150151  RH  067%=      5-min Rain = 0
KVA1 151212Z 21008KT 21/15 A3001 RMK A01 T02140151  RH  067%=      5-min Rain = 0
KVA1 151213Z 21009KT 21/15 A3001 RMK A01 T02140150  RH  067%=      5-min Rain = 0
KVA1 151214Z 21008KT 21/15 A3001 RMK A01 T02140150  RH  067%=      5-min Rain = 0
KVA1 151215Z 21008KT 22/15 A3001 RMK A01 T02150150  RH  067%=      5-min Rain = 0
KVA1 151216Z 21009KT 22/15 A3001 RMK A01 T02150150  RH  067%=      5-min Rain = 0
KVA1 151217Z 20007KT 22/15 A3001 RMK A01 T02150150  RH  067%=      5-min Rain = 0
KVA1 151218Z 20008KT 22/15 A3001 RMK A01 T02150150  RH  066%=      5-min Rain = 0
KVA1 151219Z 20008KT 22/15 A3001 RMK A01 T02150150  RH  066%=      5-min Rain = 0
KVA1 151220Z 20008KT 22/15 A3001 RMK A01 T02150149  RH  066%=      5-min Rain = 0
KVA1 151221Z 20010KT 22/15 A3001 RMK A01 T02160150  RH  066%=      5-min Rain = 0
KVA1 151222Z 21009KT 22/15 A3001 RMK A01 T02160149  RH  066%=      5-min Rain = 0
KVA1 151223Z 21008KT 22/15 A3001 RMK A01 T02160150  RH  066%=      5-min Rain = 0
KVA1 151224Z 21010KT 22/15 A3001 RMK A01 T02160150  RH  066%=      5-min Rain = 0
KVA1 151225Z 21010KT 22/15 A3001 RMK A01 T02160150  RH  066%=      5-min Rain = 0
KVA1 151226Z 21010KT 22/15 A3002 RMK A01 T02160150  RH  066%=      5-min Rain = 0
KVA1 151227Z 21008KT 22/15 A3002 RMK A01 T02160150  RH  066%=      5-min Rain = 0
KVA1 151228Z 21010KT 22/15 A3002 RMK A01 T02160150  RH  066%=      5-min Rain = 0
KVA1 151229Z 20009KT 22/15 A3002 RMK A01 T02160149  RH  066%=      5-min Rain = 0
KVA1 151230Z 20008KT 22/15 A3002 RMK A01 T02160149  RH  066%=      5-min Rain = 0
KVA1 151231Z 21010KT 22/15 A3002 RMK A01 T02160149  RH  066%=      5-min Rain = 0
KVA1 151232Z 21009KT 22/15 A3002 RMK A01 T02160149  RH  065%=      5-min Rain = 0
KVA1 151233Z 21009KT 22/15 A3002 RMK A01 T02160149  RH  065%=      5-min Rain = 0
KVA1 151234Z 20009KT 22/15 A3002 RMK A01 T02160149  RH  065%=      5-min Rain = 0
KVA1 151235Z 20011KT 22/15 A3002 RMK A01 T02160149  RH  065%=      5-min Rain = 0
KVA1 151236Z 21011KT 22/15 A3002 RMK A01 T02170149  RH  065%=      5-min Rain = 0
KVA1 151237Z 21010KT 22/15 A3002 RMK A01 T02170148  RH  065%=      5-min Rain = 0
KVA1 151238Z 21010KT 22/15 A3002 RMK A01 T02170148  RH  065%=      5-min Rain = 0
KVA1 151239Z 21010KT 22/15 A3002 RMK A01 T02170148  RH  065%=      5-min Rain = 0
KVA1 151240Z 21009KT 22/15 A3002 RMK A01 T02180148  RH  065%=      5-min Rain = 0
KVA1 151241Z 21009KT 22/15 A3002 RMK A01 T02180148  RH  064%=      5-min Rain = 0
KVA1 151242Z 21010KT 22/15 A3002 RMK A01 T02180148  RH  064%=      5-min Rain = 0
KVA1 151243Z 21008KT 22/15 A3002 RMK A01 T02180148  RH  064%=      5-min Rain = 0
KVA1 151244Z 21009KT 22/15 A3002 RMK A01 T02180148  RH  064%=      5-min Rain = 0
KVA1 151245Z 22007KT 22/15 A3002 RMK A01 T02180148  RH  064%=      5-min Rain = 0
KVA1 151246Z 22008KT 22/15 A3002 RMK A01 T02190148  RH  064%=      5-min Rain = 0
KVA1 151247Z 22007KT 22/15 A3002 RMK A01 T02190148  RH  064%=      5-min Rain = 0
KVA1 151248Z 22008KT 22/15 A3002 RMK A01 T02190148  RH  064%=      5-min Rain = 0
KVA1 151249Z 22008KT 22/15 A3002 RMK A01 T02190148  RH  064%=      5-min Rain = 0
KVA1 151250Z 22009KT 22/15 A3002 RMK A01 T02190148  RH  064%=      5-min Rain = 0
KVA1 151251Z 22009KT 22/15 A3002 RMK A01 T02200148  RH  064%=      5-min Rain = 0
KVA1 151252Z 22009KT 22/15 A3003 RMK A01 T02200147  RH  064%=      5-min Rain = 0
KVA1 151253Z 21007KT 22/15 A3003 RMK A01 T02200148  RH  064%=      5-min Rain = 0
KVA1 151254Z 22008KT 22/15 A3002 RMK A01 T02200148  RH  064%=      5-min Rain = 0
KVA1 151255Z 22007KT 22/15 A3003 RMK A01 T02210148  RH  063%=      5-min Rain = 0
KVA1 151256Z 22008KT 22/15 A3003 RMK A01 T02210148  RH  063%=      5-min Rain = 0
KVA1 151257Z 22007KT 22/15 A3003 RMK A01 T02210148  RH  063%=      5-min Rain = 0
KVA1 151258Z 23007KT 22/15 A3003 RMK A01 T02210148  RH  063%=      5-min Rain = 0
KVA1 151259Z 23008KT 22/15 A3003 RMK A01 T02220148  RH  063%=      5-min Rain = 0
KVA1 151300Z 24008KT 22/15 A3003 RMK A01 T02220147  RH  062%=      5-min Rain = 0
KVA1 151301Z 24007KT 22/15 A3003 RMK A01 T02220148  RH  063%=      5-min Rain = 0
KVA1 151302Z 24007KT 22/15 A3003 RMK A01 T02230148  RH  063%=      5-min Rain = 0
KVA1 151303Z 23007KT 22/15 A3003 RMK A01 T02230147  RH  062%=      5-min Rain = 0
KVA1 151304Z 22008KT 22/15 A3003 RMK A01 T02230148  RH  062%=      5-min Rain = 0
KVA1 151305Z 21009KT 22/15 A3003 RMK A01 T02230148  RH  062%=      5-min Rain = 0
KVA1 151306Z 21009KT 22/15 A3003 RMK A01 T02230147  RH  062%=      5-min Rain = 0
KVA1 151307Z 21009KT 22/15 A3003 RMK A01 T02240147  RH  062%=      5-min Rain = 0
KVA1 151308Z 21010KT 22/15 A3003 RMK A01 T02240148  RH  062%=      5-min Rain = 0
KVA1 151309Z 22009KT 23/15 A3003 RMK A01 T02250147  RH  062%=      5-min Rain = 0
KVA1 151310Z 22008KT 23/15 A3003 RMK A01 T02250147  RH  062%=      5-min Rain = 0
KVA1 151311Z 23009KT 23/15 A3003 RMK A01 T02250147  RH  061%=      5-min Rain = 0
KVA1 151312Z 22007KT 23/15 A3003 RMK A01 T02260147  RH  061%=      5-min Rain = 0
KVA1 151313Z 22007KT 23/15 A3003 RMK A01 T02260147  RH  061%=      5-min Rain = 0
KVA1 151314Z 22008KT 23/15 A3003 RMK A01 T02270147  RH  061%=      5-min Rain = 0
KVA1 151315Z 23007KT 23/15 A3003 RMK A01 T02270147  RH  061%=      5-min Rain = 0
KVA1 151316Z 23008KT 23/15 A3003 RMK A01 T02270147  RH  060%=      5-min Rain = 0
KVA1 151317Z 22007KT 23/15 A3003 RMK A01 T02280147  RH  060%=      5-min Rain = 0
KVA1 151318Z 22009KT 23/15 A3003 RMK A01 T02290147  RH  060%=      5-min Rain = 0
KVA1 151319Z 22008KT 23/15 A3003 RMK A01 T02290147  RH  060%=      5-min Rain = 0
KVA1 151320Z 22009KT 23/15 A3003 RMK A01 T02290147  RH  060%=      5-min Rain = 0
KVA1 151321Z 22006KT 23/15 A3003 RMK A01 T02290147  RH  060%=      5-min Rain = 0
KVA1 151322Z 22008KT 23/15 A3003 RMK A01 T02290147  RH  060%=      5-min Rain = 0
KVA1 151323Z 21010KT 23/15 A3003 RMK A01 T02300145  RH  059%=      5-min Rain = 0
KVA1 151324Z 22010KT 23/14 A3003 RMK A01 T02300144  RH  058%=      5-min Rain = 0
KVA1 151325Z 22008KT 23/14 A3003 RMK A01 T02310144  RH  058%=      5-min Rain = 0
KVA1 151326Z 22009KT 23/15 A3003 RMK A01 T02320146  RH  058%=      5-min Rain = 0
KVA1 151327Z 21008KT 23/15 A3003 RMK A01 T02310147  RH  059%=      5-min Rain = 0
KVA1 151328Z 20008KT 23/15 A3003 RMK A01 T02320145  RH  058%=      5-min Rain = 0
KVA1 151329Z 21009KT 23/15 A3003 RMK A01 T02320145  RH  058%=      5-min Rain = 0
KVA1 151330Z 21009KT 23/15 A3003 RMK A01 T02330145  RH  058%=      5-min Rain = 0
KVA1 151331Z 20008KT 23/15 A3003 RMK A01 T02330145  RH  058%=      5-min Rain = 0
KVA1 151332Z 20009KT 23/14 A3003 RMK A01 T02340144  RH  057%=      5-min Rain = 0
KVA1 151333Z 20010KT 24/14 A3003 RMK A01 T02350143  RH  056%=      5-min Rain = 0
KVA1 151334Z 20008KT 24/14 A3003 RMK A01 T02350144  RH  056%=      5-min Rain = 0
KVA1 151335Z 21010KT 24/14 A3003 RMK A01 T02360144  RH  056%=      5-min Rain = 0
KVA1 151336Z 20010KT 24/14 A3003 RMK A01 T02360143  RH  056%=      5-min Rain = 0
KVA1 151337Z 21008KT 24/14 A3003 RMK A01 T02360144  RH  056%=      5-min Rain = 0
KVA1 151338Z 21007KT 24/15 A3003 RMK A01 T02370145  RH  056%=      5-min Rain = 0
KVA1 151339Z 21007KT 24/15 A3003 RMK A01 T02390146  RH  056%=      5-min Rain = 0
KVA1 151340Z 21009KT 24/14 A3003 RMK A01 T02400144  RH  055%=      5-min Rain = 0
KVA1 151341Z 20010KT 24/14 A3003 RMK A01 T02400144  RH  055%=      5-min Rain = 0
KVA1 151342Z 21009KT 24/15 A3004 RMK A01 T02400145  RH  055%=      5-min Rain = 0
KVA1 151343Z 21008KT 24/15 A3004 RMK A01 T02390146  RH  056%=      5-min Rain = 0
KVA1 151344Z 21010KT 24/15 A3003 RMK A01 T02390145  RH  056%=      5-min Rain = 0
KVA1 151345Z 21009KT 24/14 A3004 RMK A01 T02390144  RH  055%=      5-min Rain = 0
KVA1 151346Z 21011KT 24/14 A3004 RMK A01 T02400144  RH  055%=      5-min Rain = 0
KVA1 151347Z 20011KT 24/14 A3004 RMK A01 T02400143  RH  055%=      5-min Rain = 0
KVA1 151348Z 20011KT 24/14 A3004 RMK A01 T02400142  RH  054%=      5-min Rain = 0
KVA1 151349Z 20011KT 24/14 A3004 RMK A01 T02400142  RH  054%=      5-min Rain = 0
KVA1 151350Z 20011KT 24/14 A3004 RMK A01 T02400142  RH  054%=      5-min Rain = 0
KVA1 151351Z 21008KT 24/14 A3004 RMK A01 T02410143  RH  054%=      5-min Rain = 0
KVA1 151352Z 21010KT 24/14 A3004 RMK A01 T02410143  RH  054%=      5-min Rain = 0
KVA1 151353Z 20010KT 24/14 A3004 RMK A01 T02420142  RH  054%=      5-min Rain = 0
KVA1 151354Z 20009KT 24/14 A3004 RMK A01 T02420143  RH  054%=      5-min Rain = 0
KVA1 151355Z 21010KT 24/14 A3004 RMK A01 T02440142  RH  053%=      5-min Rain = 0
KVA1 151356Z 21011KT 24/14 A3004 RMK A01 T02440142  RH  053%=      5-min Rain = 0
KVA1 151357Z 20011KT 25/14 A3004 RMK A01 T02450142  RH  053%=      5-min Rain = 0
KVA1 151358Z 21010KT 25/14 A3004 RMK A01 T02450142  RH  053%=      5-min Rain = 0
KVA1 151359Z 20009KT 25/14 A3004 RMK A01 T02450142  RH  052%=      5-min Rain = 0
KVA1 151400Z 20010KT 25/14 A3004 RMK A01 T02460142  RH  052%=      5-min Rain = 0
KVA1 151401Z 20009KT 25/14 A3004 RMK A01 T02470141  RH  052%=      5-min Rain = 0
KVA1 151402Z 21009KT 25/14 A3004 RMK A01 T02470141  RH  052%=      5-min Rain = 0
KVA1 151403Z 20009KT 25/14 A3004 RMK A01 T02480143  RH  052%=      5-min Rain = 0
KVA1 151404Z 20010KT 25/14 A3004 RMK A01 T02480142  RH  052%=      5-min Rain = 0
KVA1 151405Z 20008KT 25/14 A3004 RMK A01 T02480143  RH  052%=      5-min Rain = 0
KVA1 151406Z 20010KT 25/14 A3004 RMK A01 T02490142  RH  051%=      5-min Rain = 0
KVA1 151407Z 20009KT 25/14 A3004 RMK A01 T02500140  RH  050%=      5-min Rain = 0
KVA1 151408Z 20008KT 25/14 A3004 RMK A01 T02500141  RH  051%=      5-min Rain = 0
KVA1 151409Z 20010KT 25/14 A3004 RMK A01 T02500140  RH  050%=      5-min Rain = 0
KVA1 151410Z 20011KT 25/14 A3004 RMK A01 T02500139  RH  050%=      5-min Rain = 0
KVA1 151411Z 20008KT 25/14 A3004 RMK A01 T02500139  RH  050%=      5-min Rain = 0
KVA1 151412Z 21009KT 25/14 A3004 RMK A01 T02510139  RH  050%=      5-min Rain = 0
KVA1 151413Z 21010KT 25/14 A3004 RMK A01 T02510139  RH  050%=      5-min Rain = 0
KVA1 151414Z 21009KT 25/14 A3004 RMK A01 T02510139  RH  050%=      5-min Rain = 0
KVA1 151415Z 21008KT 25/14 A3004 RMK A01 T02520139  RH  049%=      5-min Rain = 0
KVA1 151416Z 21010KT 25/14 A3004 RMK A01 T02530138  RH  049%=      5-min Rain = 0
KVA1 151417Z 20008KT 25/14 A3004 RMK A01 T02530139  RH  049%=      5-min Rain = 0
KVA1 151418Z 20008KT 25/14 A3004 RMK A01 T02530139  RH  049%=      5-min Rain = 0
KVA1 151419Z 21008KT 25/14 A3004 RMK A01 T02540139  RH  049%=      5-min Rain = 0
KVA1 151420Z 20008KT 26/14 A3004 RMK A01 T02550138  RH  048%=      5-min Rain = 0
KVA1 151421Z 20010KT 26/14 A3004 RMK A01 T02550138  RH  048%=      5-min Rain = 0
KVA1 151422Z 20008KT 26/14 A3004 RMK A01 T02550138  RH  048%=      5-min Rain = 0
KVA1 151423Z 20008KT 26/14 A3004 RMK A01 T02560138  RH  048%=      5-min Rain = 0
KVA1 151424Z 21007KT 26/14 A3004 RMK A01 T02550139  RH  049%=      5-min Rain = 0
KVA1 151425Z 21009KT 26/14 A3004 RMK A01 T02560139  RH  048%=      5-min Rain = 0
KVA1 151426Z 19007KT 26/14 A3004 RMK A01 T02560140  RH  049%=      5-min Rain = 0
KVA1 151427Z 20008KT 26/14 A3004 RMK A01 T02560142  RH  049%=      5-min Rain = 0
KVA1 151428Z 19008KT 26/14 A3004 RMK A01 T02570142  RH  049%=      5-min Rain = 0
KVA1 151429Z 20008KT 26/14 A3004 RMK A01 T02580141  RH  049%=      5-min Rain = 0
KVA1 151430Z 21009KT 26/14 A3004 RMK A01 T02590137  RH  047%=      5-min Rain = 0
KVA1 151431Z 21008KT 26/14 A3004 RMK A01 T02600136  RH  046%=      5-min Rain = 0
KVA1 151432Z 21007KT 26/14 A3004 RMK A01 T02600136  RH  046%=      5-min Rain = 0
KVA1 151433Z 21008KT 26/14 A3004 RMK A01 T02610135  RH  046%=      5-min Rain = 0
KVA1 151434Z 21007KT 26/14 A3004 RMK A01 T02630135  RH  045%=      5-min Rain = 0
KVA1 151435Z 21007KT 27/14 A3004 RMK A01 T02660138  RH  045%=      5-min Rain = 0
KVA1 151436Z 21007KT 27/14 A3004 RMK A01 T02680139  RH  045%=      5-min Rain = 0
KVA1 151437Z 21005KT 27/14 A3004 RMK A01 T02680138  RH  045%=      5-min Rain = 0
KVA1 151438Z 21008KT 27/14 A3004 RMK A01 T02680137  RH  044%=      5-min Rain = 0
KVA1 151439Z 21009KT 27/13 A3004 RMK A01 T02650132  RH  044%=      5-min Rain = 0
KVA1 151440Z 22007KT 26/13 A3004 RMK A01 T02640132  RH  044%=      5-min Rain = 0
KVA1 151441Z 22008KT 26/13 A3004 RMK A01 T02630134  RH  045%=      5-min Rain = 0
KVA1 151442Z 21007KT 26/13 A3004 RMK A01 T02640134  RH  044%=      5-min Rain = 0
KVA1 151443Z 22008KT 27/13 A3004 RMK A01 T02660133  RH  044%=      5-min Rain = 0
KVA1 151444Z 21008KT 27/13 A3004 RMK A01 T02670132  RH  043%=      5-min Rain = 0
KVA1 151445Z 20007KT 27/13 A3004 RMK A01 T02670132  RH  043%=      5-min Rain = 0
KVA1 151446Z 21006KT 27/13 A3004 RMK A01 T02680132  RH  043%=      5-min Rain = 0
KVA1 151447Z 22006KT 27/13 A3004 RMK A01 T02690132  RH  043%=      5-min Rain = 0
KVA1 151448Z 21008KT 27/13 A3004 RMK A01 T02700131  RH  042%=      5-min Rain = 0
KVA1 151449Z 22006KT 27/13 A3004 RMK A01 T02710133  RH  043%=      5-min Rain = 0
KVA1 151450Z 21006KT 27/13 A3004 RMK A01 T02720131  RH  042%=      5-min Rain = 0
KVA1 151451Z 22006KT 27/13 A3004 RMK A01 T02730131  RH  042%=      5-min Rain = 0
KVA1 151452Z 21006KT 27/13 A3004 RMK A01 T02720132  RH  042%=      5-min Rain = 0
KVA1 151453Z 19007KT 27/13 A3004 RMK A01 T02730133  RH  042%=      5-min Rain = 0
KVA1 151454Z 19006KT 27/14 A3004 RMK A01 T02730135  RH  042%=      5-min Rain = 0
KVA1 151455Z 19006KT 28/14 A3004 RMK A01 T02750135  RH  042%=      5-min Rain = 0
KVA1 151456Z 20005KT 28/13 A3004 RMK A01 T02760134  RH  042%=      5-min Rain = 0
KVA1 151457Z 21007KT 28/13 A3004 RMK A01 T02770127  RH  040%=      5-min Rain = 0
KVA1 151458Z 20006KT 28/13 A3004 RMK A01 T02770127  RH  040%=      5-min Rain = 0
KVA1 151459Z 19006KT 28/13 A3004 RMK A01 T02790132  RH  040%=      5-min Rain = 0
KVA1 151500Z 20007KT 28/13 A3004 RMK A01 T02800131  RH  040%=      5-min Rain = 0
KVA1 151501Z 22006KT 28/13 A3004 RMK A01 T02800131  RH  040%=      5-min Rain = 0
KVA1 151502Z 21007KT 28/13 A3004 RMK A01 T02810125  RH  038%=      5-min Rain = 0
KVA1 151503Z 21007KT 28/12 A3004 RMK A01 T02800124  RH  038%=      5-min Rain = 0
KVA1 151504Z 23006KT 28/12 A3004 RMK A01 T02810124  RH  038%=      5-min Rain = 0
KVA1 151505Z 22007KT 28/13 A3004 RMK A01 T02840125  RH  037%=      5-min Rain = 0
KVA1 151506Z 21006KT 28/12 A3004 RMK A01 T02840123  RH  037%=      5-min Rain = 0
KVA1 151507Z 22009KT 28/13 A3003 RMK A01 T02830125  RH  038%=      5-min Rain = 0
KVA1 151508Z 22008KT 28/12 A3004 RMK A01 T02830123  RH  037%=      5-min Rain = 0
KVA1 151509Z 21007KT 28/12 A3004 RMK A01 T02830123  RH  037%=      5-min Rain = 0
KVA1 151510Z 21006KT 29/12 A3004 RMK A01 T02850124  RH  037%=      5-min Rain = 0
KVA1 151511Z 22007KT 29/12 A3003 RMK A01 T02850122  RH  037%=      5-min Rain = 0
KVA1 151512Z 21008KT 29/12 A3003 RMK A01 T02850120  RH  036%=      5-min Rain = 0
KVA1 151513Z 22008KT 29/12 A3003 RMK A01 T02880117  RH  035%=      5-min Rain = 0
KVA1 151514Z 21008KT 29/12 A3004 RMK A01 T02900119  RH  035%=      5-min Rain = 0
KVA1 151515Z 20008KT 29/12 A3003 RMK A01 T02910116  RH  034%=      5-min Rain = 0
KVA1 151516Z 21007KT 29/12 A3003 RMK A01 T02910117  RH  034%=      5-min Rain = 0
KVA1 151517Z 22010KT 29/12 A3003 RMK A01 T02910116  RH  034%=      5-min Rain = 0
KVA1 151518Z 24011G16KT 29/10 A3004 RMK A01 T02910103  RH  031%=      5-min Rain = 0
KVA1 151519Z 19003KT 29/10 A3003 RMK A01 T02910096  RH  030%=      5-min Rain = 0
KVA1 151520Z 22003KT 29/10 A3003 RMK A01 T02900097  RH  030%=      5-min Rain = 0
KVA1 151521Z 21006KT 29/11 A3003 RMK A01 T02910105  RH  032%=      5-min Rain = 0
KVA1 151522Z 21007KT 29/11 A3003 RMK A01 T02930105  RH  031%=      5-min Rain = 0
KVA1 151523Z 20007KT 29/11 A3003 RMK A01 T02940111  RH  032%=      5-min Rain = 0
KVA1 151524Z 21007KT 30/11 A3003 RMK A01 T02950108  RH  031%=      5-min Rain = 0
KVA1 151525Z 20008KT 30/10 A3003 RMK A01 T02960103  RH  030%=      5-min Rain = 0
KVA1 151526Z 24010KT 30/10 A3003 RMK A01 T02960103  RH  030%=      5-min Rain = 0
KVA1 151527Z 24006KT 30/10 A3003 RMK A01 T02960104  RH  030%=      5-min Rain = 0
KVA1 151528Z 26006KT 30/10 A3003 RMK A01 T02970101  RH  030%=      5-min Rain = 0
KVA1 151529Z 25007G12KT 30/10 A3003 RMK A01 T02990100  RH  029%=      5-min Rain = 0
KVA1 151530Z 22005KT 30/10 A3003 RMK A01 T03000104  RH  030%=      5-min Rain = 0
KVA1 151531Z 24006KT 30/10 A3003 RMK A01 T03000104  RH  030%=      5-min Rain = 0
KVA1 151532Z 24006KT 30/11 A3003 RMK A01 T03010108  RH  030%=      5-min Rain = 0
KVA1 151533Z 24006KT 30/11 A3003 RMK A01 T03030107  RH  030%=      5-min Rain = 0
KVA1 151534Z 25006KT 30/11 A3003 RMK A01 T03030106  RH  030%=      5-min Rain = 0
KVA1 151535Z 27005KT 31/10 A3003 RMK A01 T03050098  RH  028%=      5-min Rain = 0
KVA1 151536Z 26009G14KT 31/09 A3003 RMK A01 T03080089  RH  026%=      5-min Rain = 0
KVA1 151537Z 27010KT 31/07 A3003 RMK A01 T03090070  RH  022%=      5-min Rain = 0
KVA1 151538Z 28010KT 31/07 A3003 RMK A01 T03110069  RH  022%=      5-min Rain = 0
KVA1 151539Z 27013KT 31/07 A3003 RMK A01 T03120065  RH  021%=      5-min Rain = 0
KVA1 151540Z 28012KT 31/06 A3003 RMK A01 T03090064  RH  021%=      5-min Rain = 0
KVA1 151541Z 28014KT 31/06 A3003 RMK A01 T03090064  RH  021%=      5-min Rain = 0
KVA1 151542Z 28008KT 31/06 A3003 RMK A01 T03080064  RH  022%=      5-min Rain = 0
KVA1 151543Z 28009KT 31/07 A3003 RMK A01 T03090065  RH  022%=      5-min Rain = 0
KVA1 151544Z 28010KT 31/06 A3003 RMK A01 T03100064  RH  021%=      5-min Rain = 0
KVA1 151545Z 27011KT 31/06 A3003 RMK A01 T03130064  RH  021%=      5-min Rain = 0
KVA1 151546Z 29013G19KT 32/06 A3003 RMK A01 T03150063  RH  021%=      5-min Rain = 0
KVA1 151547Z 28016KT 31/06 A3003 RMK A01 T03120061  RH  021%=      5-min Rain = 0
KVA1 151548Z 28013KT 31/06 A3003 RMK A01 T03090060  RH  021%=      5-min Rain = 0
KVA1 151549Z 29013KT 31/06 A3003 RMK A01 T03080064  RH  022%=      5-min Rain = 0
KVA1 151550Z 29015KT 31/06 A3003 RMK A01 T03090063  RH  021%=      5-min Rain = 0
KVA1 151551Z 28009G14KT 31/06 A3003 RMK A01 T03080063  RH  022%=      5-min Rain = 0
KVA1 151552Z 29009KT 31/07 A3003 RMK A01 T03080066  RH  022%=      5-min Rain = 0
KVA1 151553Z 30011KT 31/07 A3002 RMK A01 T03090066  RH  022%=      5-min Rain = 0
KVA1 151554Z 30011KT 31/06 A3002 RMK A01 T03110063  RH  021%=      5-min Rain = 0
KVA1 151555Z 29010KT 31/06 A3002 RMK A01 T03100064  RH  021%=      5-min Rain = 0
KVA1 151556Z 29010KT 31/06 A3002 RMK A01 T03100064  RH  021%=      5-min Rain = 0
KVA1 151557Z 27007KT 31/06 A3002 RMK A01 T03090062  RH  021%=      5-min Rain = 0
KVA1 151558Z 28013KT 31/07 A3002 RMK A01 T03110065  RH  021%=      5-min Rain = 0
KVA1 151559Z 28014KT 31/06 A3002 RMK A01 T03120061  RH  021%=      5-min Rain = 0
KVA1 151600Z 29016KT 31/06 A3002 RMK A01 T03110061  RH  021%=      5-min Rain = 0
KVA1 151601Z 29014KT 31/06 A3002 RMK A01 T03110059  RH  021%=      5-min Rain = 0
KVA1 151602Z 29014KT 31/06 A3002 RMK A01 T03120059  RH  020%=      5-min Rain = 0
KVA1 151603Z 28013KT 31/06 A3002 RMK A01 T03130059  RH  020%=      5-min Rain = 0
KVA1 151604Z 27015KT 31/06 A3002 RMK A01 T03130060  RH  020%=      5-min Rain = 0
KVA1 151605Z 28016KT 31/06 A3002 RMK A01 T03120060  RH  020%=      5-min Rain = 0
KVA1 151606Z 28014KT 31/06 A3002 RMK A01 T03110059  RH  021%=      5-min Rain = 0
KVA1 151607Z 26011KT 31/06 A3002 RMK A01 T03100057  RH  020%=      5-min Rain = 0
KVA1 151608Z 25011KT 31/05 A3002 RMK A01 T03110052  RH  020%=      5-min Rain = 0
KVA1 151609Z 26009KT 31/06 A3002 RMK A01 T03130056  RH  020%=      5-min Rain = 0
KVA1 151610Z 27009KT 32/06 A3002 RMK A01 T03160060  RH  020%=      5-min Rain = 0
KVA1 151611Z 27008KT 32/06 A3002 RMK A01 T03180061  RH  020%=      5-min Rain = 0
KVA1 151612Z 29012KT 32/06 A3002 RMK A01 T03190062  RH  020%=      5-min Rain = 0
KVA1 151613Z 29012KT 32/06 A3002 RMK A01 T03190060  RH  020%=      5-min Rain = 0
KVA1 151614Z 30014KT 32/06 A3002 RMK A01 T03190058  RH  020%=      5-min Rain = 0
KVA1 151615Z 28015KT 32/06 A3002 RMK A01 T03180055  RH  019%=      5-min Rain = 0
KVA1 151616Z 27012KT 32/05 A3002 RMK A01 T03170052  RH  019%=      5-min Rain = 0
KVA1 151617Z 29011KT 32/05 A3002 RMK A01 T03150052  RH  019%=      5-min Rain = 0
KVA1 151618Z 31010G15KT 32/05 A3002 RMK A01 T03180052  RH  019%=      5-min Rain = 0
KVA1 151619Z 30012KT 32/04 A3002 RMK A01 T03190043  RH  018%=      5-min Rain = 0
KVA1 151620Z 30011KT 32/05 A3002 RMK A01 T03160049  RH  019%=      5-min Rain = 0
KVA1 151621Z 28014G19KT 32/05 A3002 RMK A01 T03170053  RH  019%=      5-min Rain = 0
KVA1 151622Z 28015KT 32/05 A3002 RMK A01 T03180051  RH  019%=      5-min Rain = 0
KVA1 151623Z 29016KT 32/04 A3002 RMK A01 T03170043  RH  018%=      5-min Rain = 0
KVA1 151624Z 28015KT 32/04 A3002 RMK A01 T03160038  RH  017%=      5-min Rain = 0
KVA1 151625Z 28011G16KT 32/05 A3002 RMK A01 T03170046  RH  018%=      5-min Rain = 0
KVA1 151626Z 27013KT 32/05 A3002 RMK A01 T03200045  RH  018%=      5-min Rain = 0
KVA1 151627Z 27011KT 32/04 A3002 RMK A01 T03200044  RH  018%=      5-min Rain = 0
KVA1 151628Z 27010KT 32/04 A3002 RMK A01 T03200043  RH  017%=      5-min Rain = 0
KVA1 151629Z 28012G20KT 32/05 A3002 RMK A01 T03220046  RH  018%=      5-min Rain = 0
KVA1 151630Z 28015G20KT 32/04 A3002 RMK A01 T03230035  RH  016%=      5-min Rain = 0
KVA1 151631Z 28013KT 32/03 A3002 RMK A01 T03220030  RH  016%=      5-min Rain = 0
KVA1 151632Z 29014KT 32/04 A3002 RMK A01 T03210036  RH  017%=      5-min Rain = 0
KVA1 151633Z 30014KT 32/04 A3002 RMK A01 T03200039  RH  017%=      5-min Rain = 0
KVA1 151634Z 30011G16KT 32/04 A3002 RMK A01 T03190044  RH  018%=      5-min Rain = 0
KVA1 151635Z 28012KT 32/05 A3002 RMK A01 T03210046  RH  018%=      5-min Rain = 0
KVA1 151636Z 25014KT 32/04 A3002 RMK A01 T03220035  RH  016%=      5-min Rain = 0
KVA1 151637Z 25014KT 32/02 A3002 RMK A01 T03220022  RH  015%=      5-min Rain = 0
KVA1 151638Z 25015KT 32/02 A3002 RMK A01 T03230020  RH  015%=      5-min Rain = 0
KVA1 151639Z 26011KT 32/02 A3002 RMK A01 T03230024  RH  015%=      5-min Rain = 0
KVA1 151640Z 27012KT 32/03 A3002 RMK A01 T03230030  RH  016%=      5-min Rain = 0
KVA1 151641Z 28012G17KT 32/04 A3002 RMK A01 T03240039  RH  017%=      5-min Rain = 0
KVA1 151642Z 28011G16KT 32/04 A3002 RMK A01 T03230039  RH  017%=      5-min Rain = 0
KVA1 151643Z 31011KT 32/04 A3002 RMK A01 T03210039  RH  017%=      5-min Rain = 0
KVA1 151644Z 30010KT 32/04 A3002 RMK A01 T03200036  RH  017%=      5-min Rain = 0
KVA1 151645Z 27010G17KT 32/03 A3002 RMK A01 T03200034  RH  016%=      5-min Rain = 0
KVA1 151646Z 28014G21KT 32/03 A3002 RMK A01 T03220027  RH  015%=      5-min Rain = 0
KVA1 151647Z 28015KT 32/03 A3002 RMK A01 T03200027  RH  016%=      5-min Rain = 0
KVA1 151648Z 28014G19KT 32/03 A3002 RMK A01 T03180030  RH  016%=      5-min Rain = 0
KVA1 151649Z 26013G19KT 32/03 A3002 RMK A01 T03190032  RH  016%=      5-min Rain = 0
KVA1 151650Z 27015KT 32/03 A3002 RMK A01 T03220031  RH  016%=      5-min Rain = 0
KVA1 151651Z 27014KT 32/03 A3002 RMK A01 T03200030  RH  016%=      5-min Rain = 0
KVA1 151652Z 28014KT 32/03 A3002 RMK A01 T03190030  RH  016%=      5-min Rain = 0
KVA1 151653Z 29013KT 32/03 A3002 RMK A01 T03190027  RH  016%=      5-min Rain = 0
KVA1 151654Z 29011G17KT 32/03 A3002 RMK A01 T03210025  RH  015%=      5-min Rain = 0
KVA1 151655Z 28010KT 33/03 A3002 RMK A01 T03250028  RH  015%=      5-min Rain = 0
KVA1 151656Z 27013G18KT 33/03 A3002 RMK A01 T03260032  RH  016%=      5-min Rain = 0
KVA1 151657Z 26014KT 32/03 A3002 RMK A01 T03230033  RH  016%=      5-min Rain = 0
KVA1 151658Z 27013KT 32/04 A3002 RMK A01 T03220035  RH  016%=      5-min Rain = 0
KVA1 151659Z 25009KT 32/04 A3002 RMK A01 T03220037  RH  017%=      5-min Rain = 0
KVA1 151700Z 25011KT 32/04 A3002 RMK A01 T03230036  RH  016%=      5-min Rain = 0
KVA1 151701Z 24010KT 32/03 A3002 RMK A01 T03200032  RH  016%=      5-min Rain = 0
KVA1 151702Z 26009KT 32/03 A3002 RMK A01 T03190031  RH  016%=      5-min Rain = 0
KVA1 151703Z 29011KT 32/03 A3002 RMK A01 T03190031  RH  016%=      5-min Rain = 0
KVA1 151704Z 30010KT 32/03 A3002 RMK A01 T03190033  RH  016%=      5-min Rain = 0
KVA1 151705Z 31011KT 32/04 A3002 RMK A01 T03230039  RH  017%=      5-min Rain = 0
KVA1 151706Z 30011KT 33/04 A3002 RMK A01 T03260038  RH  016%=      5-min Rain = 0
KVA1 151707Z 30008KT 33/04 A3002 RMK A01 T03250038  RH  016%=      5-min Rain = 0
KVA1 151708Z 29016KT 33/04 A3002 RMK A01 T03260036  RH  016%=      5-min Rain = 0
KVA1 151709Z 29011KT 33/03 A3002 RMK A01 T03260032  RH  016%=      5-min Rain = 0
KVA1 151710Z 28012KT 33/03 A3002 RMK A01 T03260032  RH  016%=      5-min Rain = 0
KVA1 151711Z 28012KT 32/03 A3002 RMK A01 T03240031  RH  016%=      5-min Rain = 0
KVA1 151712Z 27012KT 32/03 A3002 RMK A01 T03230031  RH  016%=      5-min Rain = 0
KVA1 151713Z 28012KT 33/03 A3002 RMK A01 T03250033  RH  016%=      5-min Rain = 0
KVA1 151714Z 27014KT 33/03 A3002 RMK A01 T03270030  RH  015%=      5-min Rain = 0
KVA1 151715Z 28014KT 33/03 A3002 RMK A01 T03270025  RH  015%=      5-min Rain = 0
KVA1 151716Z 28010G16KT 32/03 A3002 RMK A01 T03230027  RH  015%=      5-min Rain = 0
KVA1 151717Z 29012KT 33/03 A3002 RMK A01 T03260032  RH  016%=      5-min Rain = 0
KVA1 151718Z 27010KT 32/03 A3002 RMK A01 T03240031  RH  016%=      5-min Rain = 0
KVA1 151719Z 25008KT 32/03 A3002 RMK A01 T03220030  RH  016%=      5-min Rain = 0
KVA1 151720Z 27009KT 32/03 A3001 RMK A01 T03230033  RH  016%=      5-min Rain = 0
KVA1 151721Z 29012G19KT 33/03 A3001 RMK A01 T03250034  RH  016%=      5-min Rain = 0
KVA1 151722Z 29012G18KT 33/03 A3001 RMK A01 T03260034  RH  016%=      5-min Rain = 0
KVA1 151723Z 29015KT 33/03 A3002 RMK A01 T03260030  RH  015%=      5-min Rain = 0
KVA1 151724Z 29014KT 33/03 A3002 RMK A01 T03250027  RH  015%=      5-min Rain = 0
KVA1 151725Z 28008KT 32/03 A3001 RMK A01 T03230025  RH  015%=      5-min Rain = 0
KVA1 151726Z 26008KT 32/03 A3001 RMK A01 T03230025  RH  015%=      5-min Rain = 0
KVA1 151727Z 28007G13KT 32/02 A3001 RMK A01 T03230023  RH  015%=      5-min Rain = 0
KVA1 151728Z 27012KT 32/02 A3001 RMK A01 T03240023  RH  015%=      5-min Rain = 0
KVA1 151729Z 26011G16KT 33/02 A3001 RMK A01 T03260021  RH  015%=      5-min Rain = 0
KVA1 151730Z 25016G21KT 33/03 A3001 RMK A01 T03270029  RH  015%=      5-min Rain = 0
KVA1 151731Z 24014KT 33/03 A3001 RMK A01 T03280031  RH  015%=      5-min Rain = 0
KVA1 151732Z 27014KT 33/03 A3001 RMK A01 T03300033  RH  015%=      5-min Rain = 0
KVA1 151733Z 27013G18KT 33/03 A3001 RMK A01 T03290032  RH  015%=      5-min Rain = 0
KVA1 151734Z 26011KT 33/03 A3001 RMK A01 T03260032  RH  016%=      5-min Rain = 0
KVA1 151735Z 26013KT 33/04 A3001 RMK A01 T03260035  RH  016%=      5-min Rain = 0
KVA1 151736Z 24013KT 33/03 A3001 RMK A01 T03290032  RH  015%=      5-min Rain = 0
KVA1 151737Z 26011G18KT 33/03 A3001 RMK A01 T03280028  RH  015%=      5-min Rain = 0
KVA1 151738Z 26012KT 33/02 A3001 RMK A01 T03290015  RH  014%=      5-min Rain = 0
KVA1 151739Z 27015KT 33/01 A3001 RMK A01 T03320011  RH  013%=      5-min Rain = 0
KVA1 151740Z 29011KT 33/01 A3001 RMK A01 T03290008  RH  013%=      5-min Rain = 0
KVA1 151741Z 30013KT 33/01 A3001 RMK A01 T03280010  RH  013%=      5-min Rain = 0
KVA1 151742Z 30007G12KT 33/01 A3001 RMK A01 T03280011  RH  013%=      5-min Rain = 0
KVA1 151743Z 30011KT 33/01 A3001 RMK A01 T03300010  RH  013%=      5-min Rain = 0
KVA1 151744Z 30014G19KT 33/01 A3001 RMK A01 T03310008  RH  013%=      5-min Rain = 0
KVA1 151745Z 29018G23KT 33/02 A3001 RMK A01 T03310016  RH  014%=      5-min Rain = 0
KVA1 151746Z 28014G19KT 33/02 A3001 RMK A01 T03280018  RH  014%=      5-min Rain = 0
KVA1 151747Z 26013KT 33/02 A3001 RMK A01 T03260021  RH  014%=      5-min Rain = 0
KVA1 151748Z 25011KT 33/02 A3001 RMK A01 T03280022  RH  014%=      5-min Rain = 0
KVA1 151749Z 24009KT 33/02 A3001 RMK A01 T03300023  RH  014%=      5-min Rain = 0
KVA1 151750Z 24010KT 33/03 A3001 RMK A01 T03310025  RH  014%=      5-min Rain = 0
KVA1 151751Z 26010KT 34/03 A3001 RMK A01 T03350025  RH  014%=      5-min Rain = 0
KVA1 151752Z 24010G15KT 33/02 A3001 RMK A01 T03340024  RH  014%=      5-min Rain = 0
KVA1 151753Z 26013G18KT 34/03 A3001 RMK A01 T03350025  RH  014%=      5-min Rain = 0
KVA1 151754Z 26009KT 34/02 A3001 RMK A01 T03350022  RH  014%=      5-min Rain = 0
KVA1 151755Z 26012KT 33/02 A3001 RMK A01 T03330024  RH  014%=      5-min Rain = 0
KVA1 151756Z 27017G22KT 33/02 A3001 RMK A01 T03330023  RH  014%=      5-min Rain = 0
KVA1 151757Z 27016KT 33/02 A3001 RMK A01 T03300022  RH  014%=      5-min Rain = 0
KVA1 151758Z 27017KT 33/02 A3001 RMK A01 T03290023  RH  014%=      5-min Rain = 0
KVA1 151759Z 27012KT 33/02 A3001 RMK A01 T03300022  RH  014%=      5-min Rain = 0
KVA1 151800Z 27007KT 33/02 A3001 RMK A01 T03260019  RH  014%=      5-min Rain = 0
KVA1 151801Z 26009KT 32/02 A3001 RMK A01 T03230019  RH  014%=      5-min Rain = 0
KVA1 151802Z 25013G18KT 33/02 A30 RMK A01 T03260020  RH  014%=      5-min Rain = 0
KVA1 151803Z 23012KT 33/02 A30 RMK A01 T03310020  RH  014%=      5-min Rain = 0
KVA1 151804Z 21010KT 33/02 A30 RMK A01 T03330021  RH  014%=      5-min Rain = 0
KVA1 151805Z 22008KT 33/02 A30 RMK A01 T03310017  RH  014%=      5-min Rain = 0
KVA1 151806Z 26011G16KT 33/02 A30 RMK A01 T03300016  RH  014%=      5-min Rain = 0
KVA1 151807Z 26006KT 33/01 A30 RMK A01 T03340011  RH  013%=      5-min Rain = 0
KVA1 151808Z 31008G13KT 34/01 A30 RMK A01 T03380013  RH  013%=      5-min Rain = 0
KVA1 151809Z 29011KT 34/01 A30 RMK A01 T03390011  RH  012%=      5-min Rain = 0
KVA1 151810Z 27009KT 34/01 A30 RMK A01 T03370012  RH  013%=      5-min Rain = 0
KVA1 151811Z 26008KT 34/01 A30 RMK A01 T03370009  RH  012%=      5-min Rain = 0
KVA1 151812Z 27015KT 34/01 A30 RMK A01 T03350012  RH  013%=      5-min Rain = 0
KVA1 151813Z 26013G18KT 34/01 A30 RMK A01 T03350012  RH  013%=      5-min Rain = 0
KVA1 151814Z 26008KT 33/01 A30 RMK A01 T03330012  RH  013%=      5-min Rain = 0
KVA1 151815Z 24005KT 33/01 A30 RMK A01 T03320013  RH  013%=      5-min Rain = 0
KVA1 151816Z 27006KT 33/01 A30 RMK A01 T03310011  RH  013%=      5-min Rain = 0
KVA1 151817Z 28009KT 33/01 A30 RMK A01 T03300013  RH  013%=      5-min Rain = 0
KVA1 151818Z 27011KT 33/02 A30 RMK A01 T03320015  RH  013%=      5-min Rain = 0
KVA1 151819Z 25009KT 33/01 A2999 RMK A01 T03320013  RH  013%=      5-min Rain = 0
KVA1 151820Z 29010G15KT 33/02 A30 RMK A01 T03330015  RH  013%=      5-min Rain = 0
KVA1 151821Z 30012KT 34/02 A30 RMK A01 T03350015  RH  013%=      5-min Rain = 0
KVA1 151822Z 29011KT 34/02 A2999 RMK A01 T03360017  RH  013%=      5-min Rain = 0
KVA1 151823Z 29018G24KT 34/02 A2999 RMK A01 T03420019  RH  013%=      5-min Rain = 0
KVA1 151824Z 29016KT 34/01 A30 RMK A01 T03390014  RH  013%=      5-min Rain = 0
KVA1 151825Z 29016KT 34/01 A30 RMK A01 T03360013  RH  013%=      5-min Rain = 0
KVA1 151826Z 28014KT 34/02 A30 RMK A01 T03360016  RH  013%=      5-min Rain = 0
KVA1 151827Z 27013KT 34/02 A30 RMK A01 T03360015  RH  013%=      5-min Rain = 0
KVA1 151828Z 28010KT 33/01 A30 RMK A01 T03320014  RH  013%=      5-min Rain = 0
KVA1 151829Z 31007KT 33/01 A2999 RMK A01 T03300014  RH  013%=      5-min Rain = 0
KVA1 151830Z 31006KT 33/01 A2999 RMK A01 T03270013  RH  014%=      5-min Rain = 0
KVA1 151831Z 29005KT 33/02 A2999 RMK A01 T03290015  RH  014%=      5-min Rain = 0
KVA1 151832Z 26005KT 33/01 A2999 RMK A01 T03300013  RH  013%=      5-min Rain = 0
KVA1 151833Z 27007KT 33/02 A2999 RMK A01 T03310015  RH  013%=      5-min Rain = 0
KVA1 151834Z 26009KT 33/02 A2999 RMK A01 T03340019  RH  014%=      5-min Rain = 0
KVA1 151835Z 25012KT 34/03 A2999 RMK A01 T03390029  RH  014%=      5-min Rain = 0
KVA1 151836Z 24015KT 34/03 A2999 RMK A01 T03430027  RH  014%=      5-min Rain = 0
KVA1 151837Z 27012KT 34/03 A2999 RMK A01 T03430027  RH  014%=      5-min Rain = 0
KVA1 151838Z 27010KT 35/02 A2999 RMK A01 T03450023  RH  013%=      5-min Rain = 0
KVA1 151839Z 25014KT 34/03 A2999 RMK A01 T03440026  RH  013%=      5-min Rain = 0
KVA1 151840Z 25015KT 35/03 A2999 RMK A01 T03450029  RH  014%=      5-min Rain = 0
KVA1 151841Z 26009G15KT 34/03 A2999 RMK A01 T03420026  RH  014%=      5-min Rain = 0
KVA1 151842Z 24009KT 34/03 A2999 RMK A01 T03380028  RH  014%=      5-min Rain = 0
KVA1 151843Z 25007KT 34/03 A2999 RMK A01 T03380030  RH  014%=      5-min Rain = 0
KVA1 151844Z 25005KT 34/03 A2999 RMK A01 T03420033  RH  014%=      5-min Rain = 0
KVA1 151845Z 27008KT 35/03 A2999 RMK A01 T03450033  RH  014%=      5-min Rain = 0
KVA1 151846Z 24010KT 34/03 A2999 RMK A01 T03440030  RH  014%=      5-min Rain = 0
KVA1 151847Z 26006KT 34/03 A2999 RMK A01 T03410030  RH  014%=      5-min Rain = 0
KVA1 151848Z 29010G16KT 34/03 A2998 RMK A01 T03410027  RH  014%=      5-min Rain = 0
KVA1 151849Z 28013KT 34/03 A2999 RMK A01 T03390025  RH  014%=      5-min Rain = 0
KVA1 151850Z 28013KT 34/03 A2998 RMK A01 T03380025  RH  014%=      5-min Rain = 0
KVA1 151851Z 29011KT 34/03 A2998 RMK A01 T03360026  RH  014%=      5-min Rain = 0
KVA1 151852Z 31009KT 34/03 A2998 RMK A01 T03350026  RH  014%=      5-min Rain = 0
KVA1 151853Z 30007KT 33/02 A2998 RMK A01 T03330024  RH  014%=      5-min Rain = 0
KVA1 151854Z 30009KT 33/02 A2998 RMK A01 T03300024  RH  014%=      5-min Rain = 0
KVA1 151855Z 31007KT 33/03 A2998 RMK A01 T03300025  RH  015%=      5-min Rain = 0
KVA1 151856Z 31004KT 33/03 A2998 RMK A01 T03290026  RH  015%=      5-min Rain = 0
KVA1 151857Z 28012G29KT 33/03 A2996 RMK A01 T03320029  RH  015%=      5-min Rain = 0
KVA1 151858Z 24015KT 34/03 A2998 RMK A01 T03370034  RH  015%=      5-min Rain = 0
KVA1 151859Z 26017KT 34/04 A2998 RMK A01 T03420036  RH  015%=      5-min Rain = 0
KVA1 151900Z 27017G22KT 34/04 A2998 RMK A01 T03420035  RH  015%=      5-min Rain = 0
KVA1 151901Z 28016G22KT 34/03 A2998 RMK A01 T03410034  RH  015%=      5-min Rain = 0
KVA1 151902Z 28015KT 34/04 A2998 RMK A01 T03390035  RH  015%=      5-min Rain = 0
KVA1 151903Z 25015KT 34/04 A2998 RMK A01 T03380035  RH  015%=      5-min Rain = 0
KVA1 151904Z 25010G15KT 34/03 A2998 RMK A01 T03360033  RH  015%=      5-min Rain = 0
KVA1 151905Z 24007KT 33/03 A2998 RMK A01 T03330032  RH  015%=      5-min Rain = 0
KVA1 151906Z 23007KT 33/03 A2998 RMK A01 T03320033  RH  015%=      5-min Rain = 0
KVA1 151907Z 22010KT 33/04 A2998 RMK A01 T03340036  RH  015%=      5-min Rain = 0
KVA1 151908Z 21007KT 34/03 A2998 RMK A01 T03350034  RH  015%=      5-min Rain = 0
KVA1 151909Z 23006KT 33/04 A2998 RMK A01 T03340036  RH  015%=      5-min Rain = 0
KVA1 151910Z 24009KT 34/04 A2998 RMK A01 T03390038  RH  015%=      5-min Rain = 0
KVA1 151911Z 22008KT 34/03 A2997 RMK A01 T03390032  RH  014%=      5-min Rain = 0
KVA1 151912Z 23013KT 34/03 A2997 RMK A01 T03370034  RH  015%=      5-min Rain = 0
KVA1 151913Z 26013KT 34/03 A2997 RMK A01 T03390032  RH  015%=      5-min Rain = 0
KVA1 151914Z 31011KT 34/03 A2997 RMK A01 T03390029  RH  014%=      5-min Rain = 0
KVA1 151915Z 31009G14KT 34/03 A2997 RMK A01 T03350029  RH  014%=      5-min Rain = 0
KVA1 151916Z 25005KT 33/03 A2997 RMK A01 T03340029  RH  015%=      5-min Rain = 0
KVA1 151917Z 29008G14KT 34/03 A2997 RMK A01 T03380034  RH  015%=      5-min Rain = 0
KVA1 151918Z 26012KT 35/03 A2997 RMK A01 T03450029  RH  014%=      5-min Rain = 0
KVA1 151919Z 29011KT 35/03 A2997 RMK A01 T03450025  RH  013%=      5-min Rain = 0
KVA1 151920Z 28009KT 34/03 A2997 RMK A01 T03420025  RH  014%=      5-min Rain = 0
KVA1 151921Z 28011KT 34/03 A2997 RMK A01 T03390025  RH  014%=      5-min Rain = 0
KVA1 151922Z 27012KT 34/02 A2997 RMK A01 T03400024  RH  014%=      5-min Rain = 0
KVA1 151923Z 27011KT 34/02 A2997 RMK A01 T03400022  RH  013%=      5-min Rain = 0
KVA1 151924Z 28011KT 34/02 A2997 RMK A01 T03370022  RH  014%=      5-min Rain = 0
KVA1 151925Z 27014G20KT 34/02 A2997 RMK A01 T03390023  RH  014%=      5-min Rain = 0
KVA1 151926Z 26015KT 34/02 A2997 RMK A01 T03400022  RH  013%=      5-min Rain = 0
KVA1 151927Z 23012KT 35/03 A2997 RMK A01 T03460026  RH  013%=      5-min Rain = 0
KVA1 151928Z 23012KT 35/02 A2997 RMK A01 T03520024  RH  013%=      5-min Rain = 0
KVA1 151929Z 24009G14KT 35/02 A2997 RMK A01 T03470020  RH  013%=      5-min Rain = 0
KVA1 151930Z 23013KT 35/02 A2997 RMK A01 T03470023  RH  013%=      5-min Rain = 0
KVA1 151931Z 21013KT 35/02 A2997 RMK A01 T03480019  RH  013%=      5-min Rain = 0
KVA1 151932Z 23015G22KT 34/02 A2997 RMK A01 T03410018  RH  013%=      5-min Rain = 0
KVA1 151933Z 24012G18KT 34/02 A2997 RMK A01 T03420022  RH  013%=      5-min Rain = 0
KVA1 151934Z 26012G18KT 35/02 A2997 RMK A01 T03480022  RH  013%=      5-min Rain = 0
KVA1 151935Z 24013KT 35/02 A2997 RMK A01 T03510022  RH  013%=      5-min Rain = 0
KVA1 151936Z 27014KT 35/02 A2997 RMK A01 T03500020  RH  013%=      5-min Rain = 0
KVA1 151937Z 28008KT 34/02 A2996 RMK A01 T03420016  RH  013%=      5-min Rain = 0
KVA1 151938Z 22009G14KT 34/02 A2996 RMK A01 T03380021  RH  013%=      5-min Rain = 0
KVA1 151939Z 21012KT 34/02 A2996 RMK A01 T03400024  RH  014%=      5-min Rain = 0
KVA1 151940Z 21011KT 34/03 A2996 RMK A01 T03390025  RH  014%=      5-min Rain = 0
KVA1 151941Z 21012KT 34/03 A2996 RMK A01 T03410026  RH  014%=      5-min Rain = 0
KVA1 151942Z 24009KT 34/03 A2996 RMK A01 T03420026  RH  014%=      5-min Rain = 0
KVA1 151943Z 26004KT 34/02 A2996 RMK A01 T03420023  RH  013%=      5-min Rain = 0
KVA1 151944Z 29011G16KT 34/03 A2996 RMK A01 T03420027  RH  014%=      5-min Rain = 0
KVA1 151945Z 31012KT 35/03 A2996 RMK A01 T03460029  RH  014%=      5-min Rain = 0
KVA1 151946Z 30014KT 35/03 A2996 RMK A01 T03480029  RH  014%=      5-min Rain = 0
KVA1 151947Z 30013KT 35/03 A2996 RMK A01 T03490026  RH  013%=      5-min Rain = 0
KVA1 151948Z 30013KT 35/02 A2996 RMK A01 T03450024  RH  013%=      5-min Rain = 0
KVA1 151949Z 29013KT 34/03 A2996 RMK A01 T03430025  RH  014%=      5-min Rain = 0
KVA1 151950Z 28012KT 34/03 A2996 RMK A01 T03410027  RH  014%=      5-min Rain = 0
KVA1 151951Z 28005G10KT 34/03 A2996 RMK A01 T03400029  RH  014%=      5-min Rain = 0
KVA1 151952Z 26012G17KT 34/03 A2996 RMK A01 T03410028  RH  014%=      5-min Rain = 0
KVA1 151953Z 27014G19KT 34/03 A2996 RMK A01 T03430027  RH  014%=      5-min Rain = 0
KVA1 151954Z 28013KT 34/03 A2996 RMK A01 T03430027  RH  014%=      5-min Rain = 0
KVA1 151955Z 26007KT 34/02 A2996 RMK A01 T03410024  RH  014%=      5-min Rain = 0
KVA1 151956Z 28013G26KT 34/03 A2996 RMK A01 T03380025  RH  014%=      5-min Rain = 0
KVA1 151957Z 23016G26KT 35/03 A2996 RMK A01 T03450028  RH  014%=      5-min Rain = 0
KVA1 151958Z 25015KT 35/02 A2996 RMK A01 T03500022  RH  013%=      5-min Rain = 0
KVA1 151959Z 24015KT 35/02 A2996 RMK A01 T03510019  RH  012%=      5-min Rain = 0
KVA1 152000Z 25014KT 35/02 A2996 RMK A01 T03490016  RH  012%=      5-min Rain = 0
KVA1 152001Z 24014KT 35/02 A2996 RMK A01 T03470015  RH  012%=      5-min Rain = 0
KVA1 152002Z 24011KT 34/02 A2996 RMK A01 T03440016  RH  013%=      5-min Rain = 0
KVA1 152003Z 25014KT 35/02 A2996 RMK A01 T03460020  RH  013%=      5-min Rain = 0
KVA1 152004Z 24009KT 35/02 A2996 RMK A01 T03470018  RH  013%=      5-min Rain = 0
KVA1 152005Z 24007KT 35/02 A2996 RMK A01 T03460022  RH  013%=      5-min Rain = 0
KVA1 152006Z 25005KT 35/02 A2996 RMK A01 T03450022  RH  013%=      5-min Rain = 0
KVA1 152007Z 22004KT 35/02 A2996 RMK A01 T03450021  RH  013%=      5-min Rain = 0
KVA1 152008Z 23009G14KT 34/02 A2996 RMK A01 T03440023  RH  013%=      5-min Rain = 0
KVA1 152009Z 23005KT 34/02 A2995 RMK A01 T03420021  RH  013%=      5-min Rain = 0
KVA1 152010Z 24006KT 34/02 A2995 RMK A01 T03390020  RH  013%=      5-min Rain = 0
KVA1 152011Z 27008G13KT 34/02 A2995 RMK A01 T03390019  RH  013%=      5-min Rain = 0
KVA1 152012Z 25018KT 34/02 A2995 RMK A01 T03430015  RH  013%=      5-min Rain = 0
KVA1 152013Z 26017G23KT 35/01 A2995 RMK A01 T03490012  RH  012%=      5-min Rain = 0
KVA1 152014Z 25015KT 35/01 A2996 RMK A01 T03520011  RH  012%=      5-min Rain = 0
KVA1 152015Z 26015KT 35/01 A2996 RMK A01 T03520009  RH  011%=      5-min Rain = 0
KVA1 152016Z 27012G17KT 35/01 A2995 RMK A01 T03510009  RH  012%=      5-min Rain = 0
KVA1 152017Z 27008KT 35/01 A2995 RMK A01 T03510011  RH  012%=      5-min Rain = 0
KVA1 152018Z 29010KT 35/01 A2995 RMK A01 T03520011  RH  012%=      5-min Rain = 0
KVA1 152019Z 27008KT 35/01 A2995 RMK A01 T03480009  RH  012%=      5-min Rain = 0
KVA1 152020Z 25010KT 35/01 A2995 RMK A01 T03450011  RH  012%=      5-min Rain = 0
KVA1 152021Z 27011KT 35/01 A2995 RMK A01 T03490013  RH  012%=      5-min Rain = 0
KVA1 152022Z 23010G19KT 35/01 A2995 RMK A01 T03520013  RH  012%=      5-min Rain = 0
KVA1 152023Z 23016G21KT 35/01 A2995 RMK A01 T03540007  RH  011%=      5-min Rain = 0
KVA1 152024Z 23014G19KT 35/01 A2995 RMK A01 T03540005  RH  011%=      5-min Rain = 0
KVA1 152025Z 23012G21KT 35/01 A2995 RMK A01 T03510005  RH  011%=      5-min Rain = 0
KVA1 152026Z 23015KT 35/01 A2995 RMK A01 T03520007  RH  011%=      5-min Rain = 0
KVA1 152027Z 21012KT 35/01 A2995 RMK A01 T03530006  RH  011%=      5-min Rain = 0
KVA1 152028Z 21014KT 35/01 A2995 RMK A01 T03510006  RH  011%=      5-min Rain = 0
KVA1 152029Z 21013KT 35/00 A2995 RMK A01 T03490004  RH  011%=      5-min Rain = 0
KVA1 152030Z 20012KT 35/01 A2995 RMK A01 T03480005  RH  011%=      5-min Rain = 0
KVA1 152031Z 22015KT 35/01 A2995 RMK A01 T03530010  RH  011%=      5-min Rain = 0
KVA1 152032Z 20017KT 35/01 A2995 RMK A01 T03520007  RH  011%=      5-min Rain = 0
KVA1 152033Z 20012G17KT 35/00 A2995 RMK A01 T03500004  RH  011%=      5-min Rain = 0
KVA1 152034Z 22012KT 35/01 A2994 RMK A01 T03470005  RH  011%=      5-min Rain = 0
KVA1 152035Z 23011KT 35/01 A2995 RMK A01 T03480005  RH  011%=      5-min Rain = 0
KVA1 152036Z 23009KT 35/00 A2995 RMK A01 T03480004  RH  011%=      5-min Rain = 0
KVA1 152037Z 23010KT 35/00 A2995 RMK A01 T03450002  RH  011%=      5-min Rain = 0
KVA1 152038Z 23012KT 35/01 A2995 RMK A01 T03460005  RH  012%=      5-min Rain = 0
KVA1 152039Z 26013G19KT 35/01 A2995 RMK A01 T03490006  RH  011%=      5-min Rain = 0
KVA1 152040Z 27015G20KT 35/00 A2995 RMK A01 T03490004  RH  011%=      5-min Rain = 0
KVA1 152041Z 27012KT 35/00 A2995 RMK A01 T03470002  RH  011%=      5-min Rain = 0
KVA1 152042Z 27010KT 35/00 A2995 RMK A01 T03480003  RH  011%=      5-min Rain = 0
KVA1 152043Z 27007KT 35/00 A2994 RMK A01 T03470001  RH  011%=      5-min Rain = 0
KVA1 152044Z 29012G22KT 35/00 A2994 RMK A01 T03460003  RH  011%=      5-min Rain = 0
KVA1 152045Z 27020KT 35/00 A2994 RMK A01 T03500003  RH  011%=      5-min Rain = 0
KVA1 152046Z 27019G25KT 35/00 A2994 RMK A01 T03520000  RH  011%=      5-min Rain = 0
KVA1 152047Z 26013KT 35/M00 A2994 RMK A01 T03511003  RH  011%=      5-min Rain = 0
KVA1 152048Z 27009G15KT 35/00 A2994 RMK A01 T03490000  RH  011%=      5-min Rain = 0
KVA1 152049Z 26014KT 35/00 A2994 RMK A01 T03530003  RH  011%=      5-min Rain = 0
KVA1 152050Z 26015KT 35/00 A2995 RMK A01 T03540000  RH  011%=      5-min Rain = 0
KVA1 152051Z 25010KT 35/M00 A2995 RMK A01 T03501003  RH  011%=      5-min Rain = 0
KVA1 152052Z 26010KT 35/M00 A2994 RMK A01 T03471002  RH  011%=      5-min Rain = 0
KVA1 152053Z 28010KT 35/00 A2994 RMK A01 T03460000  RH  011%=      5-min Rain = 0
KVA1 152054Z 27010KT 34/00 A2994 RMK A01 T03440001  RH  011%=      5-min Rain = 0
KVA1 152055Z 24008KT 35/00 A2994 RMK A01 T03450002  RH  011%=      5-min Rain = 0
KVA1 152056Z 24011G18KT 35/00 A2994 RMK A01 T03480000  RH  011%=      5-min Rain = 0
KVA1 152057Z 25013KT 35/00 A2994 RMK A01 T03500002  RH  011%=      5-min Rain = 0
KVA1 152058Z 26009KT 35/00 A2994 RMK A01 T03520003  RH  011%=      5-min Rain = 0
KVA1 152059Z 24013G20KT 35/00 A2994 RMK A01 T03540004  RH  011%=      5-min Rain = 0
KVA1 152100Z 24017G24KT 36/01 A2993 RMK A01 T03550007  RH  011%=      5-min Rain = 0
KVA1 152101Z 29013G18KT 36/01 A2994 RMK A01 T03550010  RH  011%=      5-min Rain = 0
KVA1 152102Z 28012G17KT 35/01 A2994 RMK A01 T03540008  RH  011%=      5-min Rain = 0
KVA1 152103Z 28015G20KT 35/01 A2994 RMK A01 T03520009  RH  011%=      5-min Rain = 0
KVA1 152104Z 27013KT 35/01 A2994 RMK A01 T03500007  RH  011%=      5-min Rain = 0
KVA1 152105Z 27014KT 35/01 A2994 RMK A01 T03490007  RH  011%=      5-min Rain = 0
KVA1 152106Z 26013KT 35/01 A2994 RMK A01 T03500009  RH  012%=      5-min Rain = 0
KVA1 152107Z 26011KT 35/01 A2994 RMK A01 T03520008  RH  011%=      5-min Rain = 0
KVA1 152108Z 25010KT 35/01 A2994 RMK A01 T03520006  RH  011%=      5-min Rain = 0
KVA1 152109Z 25008KT 35/00 A2994 RMK A01 T03510003  RH  011%=      5-min Rain = 0
KVA1 152110Z 25007KT 35/00 A2994 RMK A01 T03540003  RH  011%=      5-min Rain = 0
KVA1 152111Z 26004KT 35/M00 A2994 RMK A01 T03541002  RH  010%=      5-min Rain = 0
KVA1 152112Z 26005KT 35/00 A2994 RMK A01 T03530001  RH  011%=      5-min Rain = 0
KVA1 152113Z 25007KT 36/00 A2993 RMK A01 T03550003  RH  011%=      5-min Rain = 0
KVA1 152114Z 23008KT 36/M00 A2993 RMK A01 T03561001  RH  010%=      5-min Rain = 0
KVA1 152115Z 22010KT 36/M00 A2993 RMK A01 T03551003  RH  010%=      5-min Rain = 0
KVA1 152116Z 23011KT 35/M00 A2993 RMK A01 T03511004  RH  010%=      5-min Rain = 0
KVA1 152117Z 22009KT 35/M01 A2993 RMK A01 T03481006  RH  011%=      5-min Rain = 0
KVA1 152118Z 22011KT 35/M00 A2993 RMK A01 T03461003  RH  011%=      5-min Rain = 0
KVA1 152119Z 23009KT 35/M00 A2994 RMK A01 T03491003  RH  011%=      5-min Rain = 0
KVA1 152120Z 23009KT 35/M00 A2993 RMK A01 T03531003  RH  010%=      5-min Rain = 0
KVA1 152121Z 26013KT 36/M00 A2994 RMK A01 T03561002  RH  010%=      5-min Rain = 0
KVA1 152122Z 24013KT 36/M01 A2993 RMK A01 T03581007  RH  010%=      5-min Rain = 0
KVA1 152123Z 23009KT 35/M01 A2993 RMK A01 T03541011  RH  010%=      5-min Rain = 0
KVA1 152124Z 23007KT 35/M01 A2993 RMK A01 T03491013  RH  010%=      5-min Rain = 0
KVA1 152125Z 27015KT 35/M01 A2993 RMK A01 T03501011  RH  010%=      5-min Rain = 0
KVA1 152126Z 26010KT 35/M01 A2993 RMK A01 T03511013  RH  010%=      5-min Rain = 0
KVA1 152127Z 27014G19KT 35/M01 A2993 RMK A01 T03521010  RH  010%=      5-min Rain = 0
KVA1 152128Z 28015KT 35/M01 A2993 RMK A01 T03521010  RH  010%=      5-min Rain = 0
KVA1 152129Z 30015KT 35/M01 A2993 RMK A01 T03511009  RH  010%=      5-min Rain = 0
KVA1 152130Z 29017KT 35/M01 A2993 RMK A01 T03511009  RH  010%=      5-min Rain = 0
KVA1 152131Z 28017KT 35/M01 A2993 RMK A01 T03501010  RH  010%=      5-min Rain = 0
KVA1 152132Z 29020KT 35/M01 A2993 RMK A01 T03481010  RH  010%=      5-min Rain = 0
KVA1 152133Z 28012G18KT 35/M01 A2993 RMK A01 T03461009  RH  010%=      5-min Rain = 0
KVA1 152134Z 29008KT 34/M01 A2993 RMK A01 T03441009  RH  011%=      5-min Rain = 0
KVA1 152135Z 29009KT 34/M01 A2993 RMK A01 T03411008  RH  011%=      5-min Rain = 0
KVA1 152136Z 31012KT 34/M01 A2993 RMK A01 T03431008  RH  011%=      5-min Rain = 0
KVA1 152137Z 29013KT 35/M01 A2993 RMK A01 T03461007  RH  011%=      5-min Rain = 0
KVA1 152138Z 31009KT 35/M01 A2993 RMK A01 T03471008  RH  010%=      5-min Rain = 0
KVA1 152139Z 30011G17KT 35/M00 A2993 RMK A01 T03511003  RH  011%=      5-min Rain = 0
KVA1 152140Z 29012G17KT 35/M00 A2993 RMK A01 T03541003  RH  010%=      5-min Rain = 0
KVA1 152141Z 29011G16KT 36/M00 A2993 RMK A01 T03551002  RH  010%=      5-min Rain = 0
KVA1 152142Z 28012KT 36/M00 A2993 RMK A01 T03561002  RH  010%=      5-min Rain = 0
KVA1 152143Z 26012KT 36/M00 A2993 RMK A01 T03581002  RH  010%=      5-min Rain = 0
KVA1 152144Z 27010KT 36/M01 A2993 RMK A01 T03581007  RH  010%=      5-min Rain = 0
KVA1 152145Z 27015KT 36/M01 A2993 RMK A01 T03591006  RH  010%=      5-min Rain = 0
KVA1 152146Z 27016KT 36/M01 A2993 RMK A01 T03581010  RH  010%=      5-min Rain = 0
KVA1 152147Z 26017G23KT 36/M01 A2993 RMK A01 T03551010  RH  010%=      5-min Rain = 0
KVA1 152148Z 25013G19KT 35/M01 A2993 RMK A01 T03531011  RH  010%=      5-min Rain = 0
KVA1 152149Z 27015KT 35/M01 A2993 RMK A01 T03521008  RH  010%=      5-min Rain = 0
KVA1 152150Z 26015G20KT 35/M01 A2993 RMK A01 T03541010  RH  010%=      5-min Rain = 0
KVA1 152151Z 27009G15KT 35/M01 A2993 RMK A01 T03531009  RH  010%=      5-min Rain = 0
KVA1 152152Z 25011KT 36/M01 A2993 RMK A01 T03551007  RH  010%=      5-min Rain = 0
KVA1 152153Z 24011KT 36/M01 A2993 RMK A01 T03561008  RH  010%=      5-min Rain = 0
KVA1 152154Z 25011KT 36/M01 A2993 RMK A01 T03551008  RH  010%=      5-min Rain = 0
KVA1 152155Z 24010KT 36/M01 A2993 RMK A01 T03551009  RH  010%=      5-min Rain = 0
KVA1 152156Z 24009KT 36/M01 A2993 RMK A01 T03551008  RH  010%=      5-min Rain = 0
KVA1 152157Z 25006KT 35/M01 A2992 RMK A01 T03541007  RH  010%=      5-min Rain = 0
KVA1 152158Z 25008KT 36/M01 A2992 RMK A01 T03561006  RH  010%=      5-min Rain = 0
KVA1 152159Z 24007KT 36/M01 A2992 RMK A01 T03561008  RH  010%=      5-min Rain = 0
KVA1 152200Z 24005KT 36/M01 A2992 RMK A01 T03551008  RH  010%=      5-min Rain = 0
KVA1 152201Z 23009KT 36/M01 A2992 RMK A01 T03561006  RH  010%=      5-min Rain = 0
KVA1 152202Z 26014G22KT 36/M02 A2992 RMK A01 T03581015  RH  009%=      5-min Rain = 0
KVA1 152203Z 26016KT 36/M02 A2992 RMK A01 T03581024  RH  009%=      5-min Rain = 0
KVA1 152204Z 25016G22KT 36/M02 A2992 RMK A01 T03581020  RH  009%=      5-min Rain = 0
KVA1 152205Z 25015KT 36/M02 A2992 RMK A01 T03571016  RH  009%=      5-min Rain = 0
KVA1 152206Z 25015G20KT 36/M01 A2992 RMK A01 T03571014  RH  009%=      5-min Rain = 0
KVA1 152207Z 27016G22KT 36/M01 A2992 RMK A01 T03571012  RH  010%=      5-min Rain = 0
KVA1 152208Z 27012KT 35/M02 A2992 RMK A01 T03541015  RH  010%=      5-min Rain = 0
KVA1 152209Z 26017KT 35/M01 A2992 RMK A01 T03521014  RH  010%=      5-min Rain = 0
KVA1 152210Z 26015G21KT 35/M02 A2992 RMK A01 T03511015  RH  010%=      5-min Rain = 0
KVA1 152211Z 25014KT 35/M02 A2992 RMK A01 T03521020  RH  009%=      5-min Rain = 0
KVA1 152212Z 24015KT 35/M02 A2992 RMK A01 T03511020  RH  009%=      5-min Rain = 0
KVA1 152213Z 26015G21KT 35/M02 A2992 RMK A01 T03521018  RH  009%=      5-min Rain = 0
KVA1 152214Z 27016KT 35/M02 A2992 RMK A01 T03531020  RH  009%=      5-min Rain = 0
KVA1 152215Z 28016G21KT 35/M02 A2992 RMK A01 T03521020  RH  009%=      5-min Rain = 0
KVA1 152216Z 28019G24KT 35/M02 A2992 RMK A01 T03511020  RH  009%=      5-min Rain = 0
KVA1 152217Z 28015KT 35/M02 A2992 RMK A01 T03511019  RH  009%=      5-min Rain = 0
KVA1 152218Z 27016KT 35/M02 A2992 RMK A01 T03511019  RH  009%=      5-min Rain = 0
KVA1 152219Z 27016KT 35/M02 A2992 RMK A01 T03511018  RH  009%=      5-min Rain = 0
KVA1 152220Z 28013KT 35/M02 A2992 RMK A01 T03491018  RH  010%=      5-min Rain = 0
KVA1 152221Z 28015KT 35/M01 A2992 RMK A01 T03501013  RH  010%=      5-min Rain = 0
KVA1 152222Z 29009KT 35/M01 A2992 RMK A01 T03521012  RH  010%=      5-min Rain = 0
KVA1 152223Z 29009KT 35/M01 A2992 RMK A01 T03501014  RH  010%=      5-min Rain = 0
KVA1 152224Z 28013G19KT 35/M01 A2992 RMK A01 T03511013  RH  010%=      5-min Rain = 0
KVA1 152225Z 29011KT 35/M02 A2992 RMK A01 T03521015  RH  010%=      5-min Rain = 0
KVA1 152226Z 30010KT 35/M02 A2992 RMK A01 T03541016  RH  009%=      5-min Rain = 0
KVA1 152227Z 28011KT 35/M01 A2991 RMK A01 T03541013  RH  010%=      5-min Rain = 0
KVA1 152228Z 32009KT 35/M01 A2991 RMK A01 T03511012  RH  010%=      5-min Rain = 0
KVA1 152229Z 30008KT 35/M01 A2991 RMK A01 T03511011  RH  010%=      5-min Rain = 0
KVA1 152230Z 31010KT 35/M01 A2991 RMK A01 T03491012  RH  010%=      5-min Rain = 0
KVA1 152231Z 29008KT 35/M01 A2991 RMK A01 T03491010  RH  010%=      5-min Rain = 0
KVA1 152232Z 28011KT 36/M01 A2991 RMK A01 T03551007  RH  010%=      5-min Rain = 0
KVA1 152233Z 28010KT 36/M01 A2991 RMK A01 T03551011  RH  010%=      5-min Rain = 0
KVA1 152234Z 22009KT 35/M01 A2991 RMK A01 T03531011  RH  010%=      5-min Rain = 0
KVA1 152235Z 22009KT 35/M01 A2991 RMK A01 T03541012  RH  010%=      5-min Rain = 0
KVA1 152236Z 31013KT 36/M01 A2991 RMK A01 T03561013  RH  010%=      5-min Rain = 0
KVA1 152237Z 29015KT 36/M02 A2991 RMK A01 T03571016  RH  009%=      5-min Rain = 0
KVA1 152238Z 27011KT 36/M02 A2991 RMK A01 T03551017  RH  009%=      5-min Rain = 0
KVA1 152239Z 27011KT 36/M02 A2991 RMK A01 T03551019  RH  009%=      5-min Rain = 0
KVA1 152240Z 28011KT 36/M02 A2991 RMK A01 T03561016  RH  009%=      5-min Rain = 0
KVA1 152241Z 27013KT 36/M02 A2991 RMK A01 T03551021  RH  009%=      5-min Rain = 0
KVA1 152242Z 26010KT 36/M03 A2991 RMK A01 T03551027  RH  009%=      5-min Rain = 0
KVA1 152243Z 25011KT 35/M03 A2991 RMK A01 T03541029  RH  009%=      5-min Rain = 0
KVA1 152244Z 24010KT 35/M03 A2991 RMK A01 T03541026  RH  009%=      5-min Rain = 0
KVA1 152245Z 24008KT 35/M03 A2991 RMK A01 T03531028  RH  009%=      5-min Rain = 0
KVA1 152246Z 23006KT 35/M03 A2991 RMK A01 T03511026  RH  009%=      5-min Rain = 0
KVA1 152247Z 22006KT 35/M02 A2991 RMK A01 T03521023  RH  009%=      5-min Rain = 0
KVA1 152248Z 22007KT 35/M02 A2991 RMK A01 T03521020  RH  009%=      5-min Rain = 0
KVA1 152249Z 21009KT 35/M02 A2991 RMK A01 T03531020  RH  009%=      5-min Rain = 0
KVA1 152250Z 22011KT 35/M02 A2991 RMK A01 T03541018  RH  009%=      5-min Rain = 0
KVA1 152251Z 22013KT 36/M02 A299 RMK A01 T03561018  RH  009%=      5-min Rain = 0
KVA1 152252Z 24011KT 36/M02 A299 RMK A01 T03551019  RH  009%=      5-min Rain = 0
KVA1 152253Z 22011KT 35/M02 A299 RMK A01 T03541020  RH  009%=      5-min Rain = 0
KVA1 152254Z 25009KT 35/M02 A299 RMK A01 T03531021  RH  009%=      5-min Rain = 0
KVA1 152255Z 25016G24KT 35/M02 A299 RMK A01 T03521021  RH  009%=      5-min Rain = 0
KVA1 152256Z 22012G19KT 35/M02 A299 RMK A01 T03521020  RH  009%=      5-min Rain = 0
KVA1 152257Z 21012KT 35/M02 A299 RMK A01 T03521018  RH  009%=      5-min Rain = 0
KVA1 152258Z 21010KT 35/M02 A299 RMK A01 T03531021  RH  009%=      5-min Rain = 0
KVA1 152259Z 21012G18KT 35/M02 A299 RMK A01 T03521023  RH  009%=      5-min Rain = 0
KVA1 152300Z 23016G21KT 35/M03 A299 RMK A01 T03531028  RH  009%=      5-min Rain = 0
KVA1 152301Z 24017KT 36/M03 A2991 RMK A01 T03561031  RH  008%=      5-min Rain = 0
KVA1 152302Z 26014G19KT 36/M03 A299 RMK A01 T03551034  RH  008%=      5-min Rain = 0
KVA1 152303Z 26017KT 36/M03 A2991 RMK A01 T03561032  RH  008%=      5-min Rain = 0
KVA1 152304Z 25014KT 36/M04 A2991 RMK A01 T03561035  RH  008%=      5-min Rain = 0
KVA1 152305Z 26011G17KT 35/M04 A2991 RMK A01 T03531035  RH  008%=      5-min Rain = 0
KVA1 152306Z 27012G18KT 35/M04 A2991 RMK A01 T03531035  RH  008%=      5-min Rain = 0
KVA1 152307Z 27010KT 35/M04 A299 RMK A01 T03501037  RH  008%=      5-min Rain = 0
KVA1 152308Z 27008KT 35/M03 A299 RMK A01 T03491034  RH  009%=      5-min Rain = 0
KVA1 152309Z 26013G18KT 35/M03 A299 RMK A01 T03491033  RH  009%=      5-min Rain = 0
KVA1 152310Z 25015KT 35/M03 A299 RMK A01 T03511032  RH  009%=      5-min Rain = 0
KVA1 152311Z 25010KT 35/M03 A299 RMK A01 T03521031  RH  009%=      5-min Rain = 0
KVA1 152312Z 26010KT 35/M03 A299 RMK A01 T03511031  RH  009%=      5-min Rain = 0
KVA1 152313Z 27008KT 35/M03 A299 RMK A01 T03501030  RH  009%=      5-min Rain = 0
KVA1 152314Z 27009KT 35/M03 A299 RMK A01 T03501030  RH  009%=      5-min Rain = 0
KVA1 152315Z 27010G15KT 35/M03 A299 RMK A01 T03501031  RH  009%=      5-min Rain = 0
KVA1 152316Z 26012KT 35/M03 A299 RMK A01 T03511032  RH  009%=      5-min Rain = 0
KVA1 152317Z 25011G16KT 35/M03 A299 RMK A01 T03521034  RH  008%=      5-min Rain = 0
KVA1 152318Z 26012G17KT 36/M03 A299 RMK A01 T03551034  RH  008%=      5-min Rain = 0
KVA1 152319Z 25010KT 36/M03 A299 RMK A01 T03571034  RH  008%=      5-min Rain = 0
KVA1 152320Z 24016KT 36/M03 A299 RMK A01 T03581032  RH  008%=      5-min Rain = 0
KVA1 152321Z 25014KT 36/M03 A299 RMK A01 T03551034  RH  008%=      5-min Rain = 0
KVA1 152322Z 23011KT 35/M03 A299 RMK A01 T03531034  RH  008%=      5-min Rain = 0
KVA1 152323Z 22012KT 35/M03 A299 RMK A01 T03531031  RH  009%=      5-min Rain = 0
KVA1 152324Z 25015G20KT 35/M03 A299 RMK A01 T03541028  RH  009%=      5-min Rain = 0
KVA1 152325Z 26010KT 35/M02 A299 RMK A01 T03541021  RH  009%=      5-min Rain = 0
KVA1 152326Z 26010KT 36/M02 A299 RMK A01 T03551024  RH  009%=      5-min Rain = 0
KVA1 152327Z 24011KT 36/M03 A299 RMK A01 T03551028  RH  009%=      5-min Rain = 0
KVA1 152328Z 25008KT 35/M03 A299 RMK A01 T03531028  RH  009%=      5-min Rain = 0
KVA1 152329Z 26008KT 35/M03 A299 RMK A01 T03521029  RH  009%=      5-min Rain = 0
KVA1 152330Z 27007KT 35/M02 A299 RMK A01 T03521024  RH  009%=      5-min Rain = 0
KVA1 152331Z 28014G20KT 36/M02 A299 RMK A01 T03551021  RH  009%=      5-min Rain = 0
KVA1 152332Z 27014KT 36/M03 A299 RMK A01 T03551026  RH  009%=      5-min Rain = 0
KVA1 152333Z 27015KT 35/M03 A299 RMK A01 T03531027  RH  009%=      5-min Rain = 0
KVA1 152334Z 26016KT 35/M03 A299 RMK A01 T03481027  RH  009%=      5-min Rain = 0
KVA1 152335Z 28014G19KT 35/M03 A299 RMK A01 T03451027  RH  009%=      5-min Rain = 0
KVA1 152336Z 29009KT 34/M02 A299 RMK A01 T03431023  RH  009%=      5-min Rain = 0
KVA1 152337Z 29010KT 34/M02 A299 RMK A01 T03421021  RH  010%=      5-min Rain = 0
KVA1 152338Z 29006KT 34/M02 A299 RMK A01 T03401020  RH  010%=      5-min Rain = 0
KVA1 152339Z 27008KT 34/M02 A299 RMK A01 T03401020  RH  010%=      5-min Rain = 0
KVA1 152340Z 29009G14KT 34/M02 A299 RMK A01 T03401021  RH  010%=      5-min Rain = 0
KVA1 152341Z 28014KT 34/M02 A299 RMK A01 T03421019  RH  010%=      5-min Rain = 0
KVA1 152342Z 27011KT 34/M02 A299 RMK A01 T03431019  RH  010%=      5-min Rain = 0
KVA1 152343Z 27013KT 35/M02 A299 RMK A01 T03451019  RH  010%=      5-min Rain = 0
KVA1 152344Z 26013G18KT 35/M02 A299 RMK A01 T03481018  RH  010%=      5-min Rain = 0
KVA1 152345Z 25012KT 35/M02 A299 RMK A01 T03481022  RH  009%=      5-min Rain = 0
KVA1 152346Z 25010KT 35/M03 A299 RMK A01 T03471025  RH  009%=      5-min Rain = 0
KVA1 152347Z 23009KT 35/M02 A299 RMK A01 T03471024  RH  009%=      5-min Rain = 0
KVA1 152348Z 24009KT 35/M02 A2989 RMK A01 T03471021  RH  009%=      5-min Rain = 0
KVA1 152349Z 24010KT 35/M02 A2989 RMK A01 T03491018  RH  010%=      5-min Rain = 0
KVA1 152350Z 23012KT 35/M02 A2989 RMK A01 T03501018  RH  010%=      5-min Rain = 0
KVA1 152351Z 24010KT 35/M02 A2989 RMK A01 T03481022  RH  009%=      5-min Rain = 0
KVA1 152352Z 24010KT 35/M02 A2989 RMK A01 T03461023  RH  009%=      5-min Rain = 0
KVA1 152353Z 25011KT 35/M02 A2989 RMK A01 T03461022  RH  009%=      5-min Rain = 0
KVA1 152354Z 24012KT 35/M02 A2989 RMK A01 T03481019  RH  010%=      5-min Rain = 0
KVA1 152355Z 24009KT 35/M02 A2989 RMK A01 T03501018  RH  010%=      5-min Rain = 0
KVA1 152356Z 25009KT 35/M02 A2989 RMK A01 T03491016  RH  010%=      5-min Rain = 0
KVA1 152357Z 27012KT 35/M02 A2989 RMK A01 T03481015  RH  010%=      5-min Rain = 0
KVA1 152358Z 25012KT 34/M01 A2989 RMK A01 T03441014  RH  010%=      5-min Rain = 0
KVA1 152359Z 25010KT 34/M01 A2989 RMK A01 T03421013  RH  010%=      5-min Rain = 0
KVA1 160000Z 25010KT 34/M01 A2989 RMK A01 T03411013  RH  010%=      5-min Rain = 0
KVA1 160001Z 26010G15KT 34/M01 A2989 RMK A01 T03421012  RH  010%=      5-min Rain = 0
KVA1 160002Z 27011KT 34/M01 A2989 RMK A01 T03441011  RH  010%=      5-min Rain = 0
KVA1 160003Z 26010KT 35/M01 A2989 RMK A01 T03451011  RH  010%=      5-min Rain = 0
KVA1 160004Z 27012KT 35/M01 A2989 RMK A01 T03461010  RH  010%=      5-min Rain = 0
KVA1 160005Z 28011KT 35/M01 A2989 RMK A01 T03451008  RH  011%=      5-min Rain = 0
KVA1 160006Z 27011KT 35/M01 A2989 RMK A01 T03451007  RH  011%=      5-min Rain = 0
KVA1 160007Z 27008KT 35/M01 A2989 RMK A01 T03451005  RH  011%=      5-min Rain = 0
KVA1 160008Z 27007KT 35/M00 A2989 RMK A01 T03451003  RH  011%=      5-min Rain = 0
KVA1 160009Z 27009KT 35/M00 A2989 RMK A01 T03461003  RH  011%=      5-min Rain = 0
KVA1 160010Z 30009KT 35/M01 A2989 RMK A01 T03461006  RH  011%=      5-min Rain = 0
KVA1 160011Z 31008KT 35/M01 A2989 RMK A01 T03451007  RH  011%=      5-min Rain = 0
KVA1 160012Z 30010KT 35/M01 A2989 RMK A01 T03451006  RH  011%=      5-min Rain = 0
KVA1 160013Z 30006KT 34/M01 A2989 RMK A01 T03441005  RH  011%=      5-min Rain = 0
KVA1 160014Z 31006KT 34/M01 A2989 RMK A01 T03431005  RH  011%=      5-min Rain = 0
KVA1 160015Z 29009KT 34/M01 A2989 RMK A01 T03431005  RH  011%=      5-min Rain = 0
KVA1 160016Z 28007KT 34/M00 A2989 RMK A01 T03431003  RH  011%=      5-min Rain = 0
KVA1 160017Z 26007KT 34/M01 A2989 RMK A01 T03431005  RH  011%=      5-min Rain = 0
KVA1 160018Z 26009KT 34/M01 A2989 RMK A01 T03421005  RH  011%=      5-min Rain = 0
KVA1 160019Z 25007KT 34/M00 A2989 RMK A01 T03421004  RH  011%=      5-min Rain = 0
KVA1 160020Z 23006KT 34/M00 A2989 RMK A01 T03431003  RH  011%=      5-min Rain = 0
KVA1 160021Z 23009KT 34/M01 A2989 RMK A01 T03441007  RH  011%=      5-min Rain = 0
KVA1 160022Z 23009KT 34/M01 A2989 RMK A01 T03431008  RH  011%=      5-min Rain = 0
KVA1 160023Z 24007KT 34/M01 A2989 RMK A01 T03421008  RH  011%=      5-min Rain = 0
KVA1 160024Z 24008KT 34/M01 A2989 RMK A01 T03431007  RH  011%=      5-min Rain = 0
KVA1 160025Z 25006KT 34/M01 A2989 RMK A01 T03441007  RH  011%=      5-min Rain = 0
KVA1 160026Z 25006KT 35/M01 A2989 RMK A01 T03461006  RH  011%=      5-min Rain = 0
KVA1 160027Z 27007KT 35/M01 A2989 RMK A01 T03471005  RH  011%=      5-min Rain = 0
KVA1 160028Z 29009KT 35/M01 A2989 RMK A01 T03471005  RH  011%=      5-min Rain = 0
KVA1 160029Z 28010KT 35/M00 A2989 RMK A01 T03471004  RH  011%=      5-min Rain = 0
KVA1 160030Z 29009KT 35/M01 A2989 RMK A01 T03461006  RH  011%=      5-min Rain = 0
KVA1 160031Z 28008KT 34/M01 A2989 RMK A01 T03441008  RH  011%=      5-min Rain = 0
KVA1 160032Z 28007KT 34/M01 A2989 RMK A01 T03431006  RH  011%=      5-min Rain = 0
KVA1 160033Z 28012KT 34/M01 A2989 RMK A01 T03431005  RH  011%=      5-min Rain = 0
KVA1 160034Z 29014KT 34/M01 A2989 RMK A01 T03431007  RH  011%=      5-min Rain = 0
KVA1 160035Z 27013KT 34/M01 A2989 RMK A01 T03421006  RH  011%=      5-min Rain = 0
KVA1 160036Z 28013KT 34/M01 A2989 RMK A01 T03421006  RH  011%=      5-min Rain = 0
KVA1 160037Z 29012KT 34/M01 A2989 RMK A01 T03411006  RH  011%=      5-min Rain = 0
KVA1 160038Z 28012KT 34/M01 A2989 RMK A01 T03401006  RH  011%=      5-min Rain = 0
KVA1 160039Z 28009KT 34/M01 A2989 RMK A01 T03401005  RH  011%=      5-min Rain = 0
KVA1 160040Z 28008KT 34/M01 A2989 RMK A01 T03401005  RH  011%=      5-min Rain = 0
KVA1 160041Z 28010KT 34/M01 A2989 RMK A01 T03401005  RH  011%=      5-min Rain = 0
KVA1 160042Z 28009KT 34/M01 A2989 RMK A01 T03401007  RH  011%=      5-min Rain = 0
KVA1 160043Z 27008KT 34/M01 A2989 RMK A01 T03391006  RH  011%=      5-min Rain = 0
KVA1 160044Z 28009KT 34/M01 A2989 RMK A01 T03391005  RH  011%=      5-min Rain = 0
KVA1 160045Z 28009KT 34/M01 A2989 RMK A01 T03391005  RH  011%=      5-min Rain = 0
KVA1 160046Z 27011KT 34/M01 A2989 RMK A01 T03381006  RH  011%=      5-min Rain = 0
KVA1 160047Z 27012KT 34/M01 A2989 RMK A01 T03381007  RH  011%=      5-min Rain = 0
KVA1 160048Z 29014KT 34/M01 A2989 RMK A01 T03391006  RH  011%=      5-min Rain = 0
KVA1 160049Z 28010KT 34/M01 A299 RMK A01 T03391007  RH  011%=      5-min Rain = 0
KVA1 160050Z 28010KT 34/M01 A2989 RMK A01 T03381007  RH  011%=      5-min Rain = 0
KVA1 160051Z 31007KT 34/M01 A299 RMK A01 T03371006  RH  011%=      5-min Rain = 0
KVA1 160052Z 30010KT 34/M01 A299 RMK A01 T03381005  RH  011%=      5-min Rain = 0
KVA1 160053Z 29009KT 34/M01 A299 RMK A01 T03381005  RH  011%=      5-min Rain = 0
KVA1 160054Z 29006KT 34/M01 A299 RMK A01 T03391005  RH  011%=      5-min Rain = 0
KVA1 160055Z 30007KT 34/M00 A299 RMK A01 T03391004  RH  011%=      5-min Rain = 0
KVA1 160056Z 29007KT 34/M01 A2989 RMK A01 T03381006  RH  011%=      5-min Rain = 0
KVA1 160057Z 28009KT 34/M01 A299 RMK A01 T03371005  RH  011%=      5-min Rain = 0
KVA1 160058Z 28008KT 34/M01 A299 RMK A01 T03361006  RH  011%=      5-min Rain = 0
KVA1 160059Z 27008KT 34/M01 A299 RMK A01 T03361006  RH  011%=      5-min Rain = 0
KVA1 160100Z 28011KT 34/M01 A299 RMK A01 T03361007  RH  011%=      5-min Rain = 0
KVA1 160101Z 29009KT 34/M01 A299 RMK A01 T03361006  RH  011%=      5-min Rain = 0
KVA1 160102Z 28012KT 34/M01 A299 RMK A01 T03371008  RH  011%=      5-min Rain = 0
KVA1 160103Z 26014KT 34/M01 A299 RMK A01 T03361009  RH  011%=      5-min Rain = 0
KVA1 160104Z 25012KT 34/M01 A299 RMK A01 T03351010  RH  011%=      5-min Rain = 0
KVA1 160105Z 27010KT 34/M01 A299 RMK A01 T03351009  RH  011%=      5-min Rain = 0
KVA1 160106Z 28011KT 34/M01 A299 RMK A01 T03351007  RH  011%=      5-min Rain = 0
KVA1 160107Z 28012KT 33/M01 A299 RMK A01 T03341007  RH  011%=      5-min Rain = 0
KVA1 160108Z 29010KT 33/M01 A299 RMK A01 T03331006  RH  011%=      5-min Rain = 0
KVA1 160109Z 29012KT 33/M01 A299 RMK A01 T03331005  RH  012%=      5-min Rain = 0
KVA1 160110Z 29011KT 33/M01 A299 RMK A01 T03331005  RH  012%=      5-min Rain = 0
KVA1 160111Z 30009KT 33/M01 A299 RMK A01 T03331005  RH  011%=      5-min Rain = 0
KVA1 160112Z 30009KT 33/M01 A299 RMK A01 T03331005  RH  012%=      5-min Rain = 0
KVA1 160113Z 29009KT 33/M01 A299 RMK A01 T03321005  RH  012%=      5-min Rain = 0
KVA1 160114Z 29010KT 33/M00 A299 RMK A01 T03321004  RH  012%=      5-min Rain = 0
KVA1 160115Z 28010KT 33/M01 A299 RMK A01 T03311005  RH  012%=      5-min Rain = 0
KVA1 160116Z 27007KT 33/M01 A299 RMK A01 T03311005  RH  012%=      5-min Rain = 0
KVA1 160117Z 28006KT 33/M00 A299 RMK A01 T03321004  RH  012%=      5-min Rain = 0
KVA1 160118Z 28005KT 33/M01 A299 RMK A01 T03321007  RH  011%=      5-min Rain = 0
KVA1 160119Z 28007KT 33/M01 A299 RMK A01 T03321005  RH  012%=      5-min Rain = 0
KVA1 160120Z 28006KT 33/M01 A299 RMK A01 T03321005  RH  012%=      5-min Rain = 0
KVA1 160121Z 27005KT 33/M01 A299 RMK A01 T03321008  RH  011%=      5-min Rain = 0
KVA1 160122Z 26007KT 33/M01 A299 RMK A01 T03321009  RH  011%=      5-min Rain = 0
KVA1 160123Z 25005KT 33/M01 A299 RMK A01 T03321011  RH  011%=      5-min Rain = 0
KVA1 160124Z 25005KT 33/M01 A299 RMK A01 T03321010  RH  011%=      5-min Rain = 0
KVA1 160125Z 26007KT 33/M01 A299 RMK A01 T03321009  RH  011%=      5-min Rain = 0
KVA1 160126Z 26010KT 33/M01 A299 RMK A01 T03321008  RH  011%=      5-min Rain = 0
KVA1 160127Z 25009KT 33/M01 A299 RMK A01 T03311008  RH  011%=      5-min Rain = 0
KVA1 160128Z 26006KT 33/M01 A299 RMK A01 T03311007  RH  012%=      5-min Rain = 0
KVA1 160129Z 25008KT 33/M01 A299 RMK A01 T03301007  RH  012%=      5-min Rain = 0
KVA1 160130Z 25009KT 33/M01 A299 RMK A01 T03301007  RH  012%=      5-min Rain = 0
KVA1 160131Z 25006KT 33/M01 A299 RMK A01 T03301006  RH  012%=      5-min Rain = 0
KVA1 160132Z 25008KT 33/M01 A299 RMK A01 T03291006  RH  012%=      5-min Rain = 0
KVA1 160133Z 25010KT 33/M01 A299 RMK A01 T03291007  RH  012%=      5-min Rain = 0
KVA1 160134Z 26009KT 33/M01 A299 RMK A01 T03281007  RH  012%=      5-min Rain = 0
KVA1 160135Z 26007KT 33/M01 A299 RMK A01 T03281007  RH  012%=      5-min Rain = 0
KVA1 160136Z 26007KT 33/M01 A299 RMK A01 T03281006  RH  012%=      5-min Rain = 0
KVA1 160137Z 26006KT 33/M01 A299 RMK A01 T03271006  RH  012%=      5-min Rain = 0
KVA1 160138Z 27009KT 33/M01 A299 RMK A01 T03271005  RH  012%=      5-min Rain = 0
KVA1 160139Z 27008KT 33/M01 A299 RMK A01 T03261005  RH  012%=      5-min Rain = 0
KVA1 160140Z 27008KT 33/M00 A299 RMK A01 T03261004  RH  012%=      5-min Rain = 0
KVA1 160141Z 27008KT 33/M01 A299 RMK A01 T03251005  RH  012%=      5-min Rain = 0
KVA1 160142Z 28007KT 33/M01 A299 RMK A01 T03251005  RH  012%=      5-min Rain = 0
KVA1 160143Z 27008KT 33/M01 A299 RMK A01 T03251005  RH  012%=      5-min Rain = 0
KVA1 160144Z 27008KT 32/M01 A299 RMK A01 T03241005  RH  012%=      5-min Rain = 0
KVA1 160145Z 27008KT 32/M01 A299 RMK A01 T03241005  RH  012%=      5-min Rain = 0
KVA1 160146Z 27009KT 32/M01 A299 RMK A01 T03241005  RH  012%=      5-min Rain = 0
KVA1 160147Z 29008KT 32/M01 A299 RMK A01 T03241005  RH  012%=      5-min Rain = 0
KVA1 160148Z 29007KT 32/M01 A299 RMK A01 T03231005  RH  012%=      5-min Rain = 0
KVA1 160149Z 29007KT 32/M00 A299 RMK A01 T03221004  RH  012%=      5-min Rain = 0
KVA1 160150Z 28006KT 32/M00 A299 RMK A01 T03221003  RH  012%=      5-min Rain = 0
KVA1 160151Z 28006KT 32/M00 A299 RMK A01 T03211004  RH  012%=      5-min Rain = 0
KVA1 160152Z 27006KT 32/M00 A299 RMK A01 T03211004  RH  012%=      5-min Rain = 0
KVA1 160153Z 28005KT 32/M00 A299 RMK A01 T03201003  RH  013%=      5-min Rain = 0
KVA1 160154Z 28006KT 32/M00 A299 RMK A01 T03191003  RH  013%=      5-min Rain = 0
KVA1 160155Z 28005KT 32/M00 A299 RMK A01 T03181003  RH  013%=      5-min Rain = 0
KVA1 160156Z 27005KT 32/M00 A299 RMK A01 T03171003  RH  013%=      5-min Rain = 0
KVA1 160157Z 27004KT 32/M00 A299 RMK A01 T03161004  RH  013%=      5-min Rain = 0
KVA1 160158Z 27005KT 32/M00 A299 RMK A01 T03161003  RH  013%=      5-min Rain = 0
KVA1 160159Z 27004KT 32/M00 A299 RMK A01 T03151003  RH  013%=      5-min Rain = 0
KVA1 160200Z 28003KT 31/M00 A299 RMK A01 T03141003  RH  013%=      5-min Rain = 0
KVA1 160201Z 28005KT 31/M00 A299 RMK A01 T03121002  RH  013%=      5-min Rain = 0
KVA1 160202Z 28006KT 31/M00 A299 RMK A01 T03111002  RH  013%=      5-min Rain = 0
KVA1 160203Z 28006KT 31/M00 A299 RMK A01 T03111003  RH  013%=      5-min Rain = 0
KVA1 160204Z 29006KT 31/M00 A299 RMK A01 T03101003  RH  013%=      5-min Rain = 0
KVA1 160205Z 29005KT 31/M00 A299 RMK A01 T03091003  RH  013%=      5-min Rain = 0
KVA1 160206Z 29005KT 31/M00 A299 RMK A01 T03081003  RH  013%=      5-min Rain = 0
KVA1 160207Z 30005KT 31/M00 A299 RMK A01 T03081003  RH  013%=      5-min Rain = 0
KVA1 160208Z 30005KT 31/M00 A299 RMK A01 T03071003  RH  014%=      5-min Rain = 0
KVA1 160209Z 30005KT 31/M00 A299 RMK A01 T03061002  RH  014%=      5-min Rain = 0
KVA1 160210Z 29005KT 31/M00 A299 RMK A01 T03061002  RH  014%=      5-min Rain = 0
KVA1 160211Z 29005KT 31/M00 A299 RMK A01 T03051002  RH  014%=      5-min Rain = 0
KVA1 160212Z 29005KT 30/M00 A299 RMK A01 T03041001  RH  014%=      5-min Rain = 0
KVA1 160213Z 29004KT 30/M00 A299 RMK A01 T03031001  RH  014%=      5-min Rain = 0
KVA1 160214Z 29004KT 30/M00 A2991 RMK A01 T03021002  RH  014%=      5-min Rain = 0
KVA1 160215Z 28005KT 30/M00 A2991 RMK A01 T03011001  RH  014%=      5-min Rain = 0
KVA1 160216Z 28005KT 30/00 A299 RMK A01 T03000000  RH  014%=      5-min Rain = 0
KVA1 160217Z 28005KT 30/00 A299 RMK A01 T029900-0  RH  015%=      5-min Rain = 0
KVA1 160218Z 29005KT 30/00 A299 RMK A01 T02980000  RH  015%=      5-min Rain = 0
KVA1 160219Z 29006KT 30/00 A299 RMK A01 T02960000  RH  015%=      5-min Rain = 0
KVA1 160220Z 29006KT 30/00 A2991 RMK A01 T02960001  RH  015%=      5-min Rain = 0
KVA1 160221Z 29006KT 30/00 A2991 RMK A01 T02950001  RH  015%=      5-min Rain = 0
KVA1 160222Z 29005KT 29/00 A2991 RMK A01 T02940001  RH  015%=      5-min Rain = 0
KVA1 160223Z 29005KT 29/00 A2991 RMK A01 T02930002  RH  015%=      5-min Rain = 0
KVA1 160224Z 29006KT 29/00 A2991 RMK A01 T02920001  RH  015%=      5-min Rain = 0
KVA1 160225Z 30006KT 29/00 A2991 RMK A01 T02910001  RH  015%=      5-min Rain = 0
KVA1 160226Z 31005KT 29/00 A2991 RMK A01 T02910001  RH  015%=      5-min Rain = 0
KVA1 160227Z 29005KT 29/00 A2991 RMK A01 T02900002  RH  015%=      5-min Rain = 0
KVA1 160228Z 29005KT 29/00 A2991 RMK A01 T02900002  RH  016%=      5-min Rain = 0
KVA1 160229Z 29005KT 29/00 A2991 RMK A01 T02890002  RH  016%=      5-min Rain = 0
KVA1 160230Z 29007KT 29/00 A2991 RMK A01 T02890001  RH  015%=      5-min Rain = 0
KVA1 160231Z 30006KT 29/00 A2991 RMK A01 T02900001  RH  015%=      5-min Rain = 0
KVA1 160232Z 30007KT 29/00 A2991 RMK A01 T029200-0  RH  015%=      5-min Rain = 0
KVA1 160233Z 30008KT 29/M00 A2991 RMK A01 T02941002  RH  015%=      5-min Rain = 0
KVA1 160234Z 30007KT 30/M00 A2991 RMK A01 T02961003  RH  014%=      5-min Rain = 0
KVA1 160235Z 30007KT 30/M00 A2991 RMK A01 T02981004  RH  014%=      5-min Rain = 0
KVA1 160236Z 31007KT 30/M01 A2991 RMK A01 T02981005  RH  014%=      5-min Rain = 0
KVA1 160237Z 31007KT 30/M01 A2991 RMK A01 T02991005  RH  014%=      5-min Rain = 0
KVA1 160238Z 31006KT 30/M01 A2991 RMK A01 T03001006  RH  014%=      5-min Rain = 0
KVA1 160239Z 30006KT 30/M01 A2991 RMK A01 T03001006  RH  014%=      5-min Rain = 0
KVA1 160240Z 31007KT 30/M01 A2991 RMK A01 T03011007  RH  014%=      5-min Rain = 0
KVA1 160241Z 31006KT 30/M01 A2991 RMK A01 T03011007  RH  014%=      5-min Rain = 0
KVA1 160242Z 30007KT 30/M01 A2991 RMK A01 T03011008  RH  013%=      5-min Rain = 0
KVA1 160243Z 31007KT 30/M01 A2991 RMK A01 T03021009  RH  013%=      5-min Rain = 0
KVA1 160244Z 31007KT 30/M01 A2991 RMK A01 T03021009  RH  013%=      5-min Rain = 0
KVA1 160245Z 31007KT 30/M01 A2991 RMK A01 T03021009  RH  013%=      5-min Rain = 0
KVA1 160246Z 31006KT 30/M01 A2992 RMK A01 T03021009  RH  013%=      5-min Rain = 0
KVA1 160247Z 31007KT 30/M01 A2992 RMK A01 T03021010  RH  013%=      5-min Rain = 0
KVA1 160248Z 31007KT 30/M01 A2992 RMK A01 T03021010  RH  013%=      5-min Rain = 0
KVA1 160249Z 31006KT 30/M01 A2992 RMK A01 T03011011  RH  013%=      5-min Rain = 0
KVA1 160250Z 31006KT 30/M01 A2992 RMK A01 T03011010  RH  013%=      5-min Rain = 0
KVA1 160251Z 31006KT 30/M01 A2992 RMK A01 T03001011  RH  013%=      5-min Rain = 0
KVA1 160252Z 31006KT 30/M01 A2992 RMK A01 T03001010  RH  013%=      5-min Rain = 0
KVA1 160253Z 31006KT 30/M01 A2992 RMK A01 T02991011  RH  013%=      5-min Rain = 0
KVA1 160254Z 32006KT 30/M01 A2992 RMK A01 T02991011  RH  013%=      5-min Rain = 0
KVA1 160255Z 32006KT 30/M01 A2992 RMK A01 T02991011  RH  013%=      5-min Rain = 0
KVA1 160256Z 31007KT 30/M01 A2992 RMK A01 T02981010  RH  013%=      5-min Rain = 0
KVA1 160257Z 31007KT 30/M01 A2992 RMK A01 T02981010  RH  013%=      5-min Rain = 0
KVA1 160258Z 31006KT 30/M01 A2992 RMK A01 T02991011  RH  013%=      5-min Rain = 0
KVA1 160259Z 31006KT 30/M01 A2992 RMK A01 T02991011  RH  013%=      5-min Rain = 0
KVA1 160300Z 30005KT 30/M01 A2992 RMK A01 T02991011  RH  013%=      5-min Rain = 0
KVA1 160301Z 31005KT 30/M01 A2992 RMK A01 T02981011  RH  013%=      5-min Rain = 0
KVA1 160302Z 31005KT 30/M01 A2992 RMK A01 T02981010  RH  014%=      5-min Rain = 0
KVA1 160303Z 31005KT 30/M01 A2992 RMK A01 T02971011  RH  014%=      5-min Rain = 0
KVA1 160304Z 31006KT 30/M01 A2992 RMK A01 T02971011  RH  014%=      5-min Rain = 0
KVA1 160305Z 31005KT 30/M01 A2992 RMK A01 T02961011  RH  014%=      5-min Rain = 0
KVA1 160306Z 30005KT 30/M01 A2992 RMK A01 T02961010  RH  014%=      5-min Rain = 0
KVA1 160307Z 31005KT 29/M01 A2992 RMK A01 T02941011  RH  014%=      5-min Rain = 0
KVA1 160308Z 31006KT 29/M01 A2992 RMK A01 T02941010  RH  014%=      5-min Rain = 0
KVA1 160309Z 31006KT 29/M01 A2992 RMK A01 T02941011  RH  014%=      5-min Rain = 0
KVA1 160310Z 31005KT 29/M01 A2992 RMK A01 T02941011  RH  014%=      5-min Rain = 0
KVA1 160311Z 31006KT 29/M01 A2992 RMK A01 T02941010  RH  014%=      5-min Rain = 0
KVA1 160312Z 32007KT 29/M01 A2992 RMK A01 T02931011  RH  014%=      5-min Rain = 0
KVA1 160313Z 31006KT 29/M01 A2992 RMK A01 T02931011  RH  014%=      5-min Rain = 0
KVA1 160314Z 31006KT 29/M01 A2992 RMK A01 T02941010  RH  014%=      5-min Rain = 0
KVA1 160315Z 31006KT 29/M01 A2992 RMK A01 T02931010  RH  014%=      5-min Rain = 0
KVA1 160316Z 32006KT 29/M01 A2992 RMK A01 T02931010  RH  014%=      5-min Rain = 0
KVA1 160317Z 31006KT 29/M01 A2992 RMK A01 T02921010  RH  014%=      5-min Rain = 0
KVA1 160318Z 31006KT 29/M01 A2992 RMK A01 T02921010  RH  014%=      5-min Rain = 0
KVA1 160319Z 31006KT 29/M01 A2992 RMK A01 T02911010  RH  014%=      5-min Rain = 0
KVA1 160320Z 31008KT 29/M01 A2992 RMK A01 T02921010  RH  014%=      5-min Rain = 0
KVA1 160321Z 31007KT 29/M01 A2993 RMK A01 T02941010  RH  014%=      5-min Rain = 0
KVA1 160322Z 31006KT 30/M01 A2993 RMK A01 T02951010  RH  014%=      5-min Rain = 0
KVA1 160323Z 31007KT 30/M01 A2993 RMK A01 T02951009  RH  014%=      5-min Rain = 0
KVA1 160324Z 31006KT 30/M01 A2993 RMK A01 T02951010  RH  014%=      5-min Rain = 0
KVA1 160325Z 31006KT 29/M01 A2993 RMK A01 T02941010  RH  014%=      5-min Rain = 0
KVA1 160326Z 31006KT 29/M01 A2993 RMK A01 T02941010  RH  014%=      5-min Rain = 0
KVA1 160327Z 30005KT 29/M01 A2993 RMK A01 T02941009  RH  014%=      5-min Rain = 0
KVA1 160328Z 30006KT 29/M01 A2993 RMK A01 T02931009  RH  014%=      5-min Rain = 0
KVA1 160329Z 30006KT 29/M01 A2993 RMK A01 T02931009  RH  014%=      5-min Rain = 0
KVA1 160330Z 30006KT 29/M01 A2993 RMK A01 T02931010  RH  014%=      5-min Rain = 0
KVA1 160331Z 30006KT 29/M01 A2993 RMK A01 T02931009  RH  014%=      5-min Rain = 0
KVA1 160332Z 30005KT 29/M01 A2993 RMK A01 T02931009  RH  014%=      5-min Rain = 0
KVA1 160333Z 30006KT 29/M01 A2993 RMK A01 T02931009  RH  014%=      5-min Rain = 0
KVA1 160334Z 31006KT 29/M01 A2993 RMK A01 T02921009  RH  014%=      5-min Rain = 0
KVA1 160335Z 31006KT 29/M01 A2993 RMK A01 T02921009  RH  014%=      5-min Rain = 0
KVA1 160336Z 30006KT 29/M01 A2993 RMK A01 T02921009  RH  014%=      5-min Rain = 0
KVA1 160337Z 31007KT 29/M01 A2993 RMK A01 T02911009  RH  014%=      5-min Rain = 0
KVA1 160338Z 30007KT 29/M01 A2993 RMK A01 T02911009  RH  014%=      5-min Rain = 0
KVA1 160339Z 30007KT 29/M01 A2993 RMK A01 T02901009  RH  014%=      5-min Rain = 0
KVA1 160340Z 31007KT 29/M01 A2993 RMK A01 T02901009  RH  014%=      5-min Rain = 0
KVA1 160341Z 31005KT 29/M01 A2993 RMK A01 T02901010  RH  014%=      5-min Rain = 0
KVA1 160342Z 31005KT 29/M01 A2993 RMK A01 T02901010  RH  014%=      5-min Rain = 0
KVA1 160343Z 31006KT 29/M01 A2993 RMK A01 T02901009  RH  014%=      5-min Rain = 0
KVA1 160344Z 31006KT 29/M01 A2993 RMK A01 T02891009  RH  014%=      5-min Rain = 0
KVA1 160345Z 31006KT 29/M01 A2993 RMK A01 T02891009  RH  014%=      5-min Rain = 0
KVA1 160346Z 31006KT 29/M01 A2993 RMK A01 T02891009  RH  014%=      5-min Rain = 0
KVA1 160347Z 30006KT 29/M01 A2993 RMK A01 T02891010  RH  014%=      5-min Rain = 0
KVA1 160348Z 31006KT 29/M01 A2994 RMK A01 T02901010  RH  014%=      5-min Rain = 0
KVA1 160349Z 30006KT 29/M01 A2994 RMK A01 T02901010  RH  014%=      5-min Rain = 0
KVA1 160350Z 30006KT 29/M01 A2994 RMK A01 T02911010  RH  014%=      5-min Rain = 0
KVA1 160351Z 30006KT 29/M01 A2994 RMK A01 T02911010  RH  014%=      5-min Rain = 0
KVA1 160352Z 30005KT 29/M01 A2994 RMK A01 T02911010  RH  014%=      5-min Rain = 0
KVA1 160353Z 30004KT 29/M01 A2994 RMK A01 T02911010  RH  014%=      5-min Rain = 0
KVA1 160354Z 30005KT 29/M01 A2994 RMK A01 T02911010  RH  014%=      5-min Rain = 0
KVA1 160355Z 30005KT 29/M01 A2994 RMK A01 T02911010  RH  014%=      5-min Rain = 0
KVA1 160356Z 31006KT 29/M01 A2994 RMK A01 T02901010  RH  014%=      5-min Rain = 0
KVA1 160357Z 31008KT 29/M01 A2994 RMK A01 T02911010  RH  014%=      5-min Rain = 0
KVA1 160358Z 31009KT 29/M01 A2994 RMK A01 T02931011  RH  014%=      5-min Rain = 0
KVA1 160359Z 31007KT 30/M01 A2994 RMK A01 T02961011  RH  014%=      5-min Rain = 0
KVA1 160400Z 30007KT 30/M01 A2994 RMK A01 T02971011  RH  014%=      5-min Rain = 0
KVA1 160401Z 30006KT 30/M01 A2994 RMK A01 T02971010  RH  014%=      5-min Rain = 0
KVA1 160402Z 30006KT 30/M01 A2994 RMK A01 T02961010  RH  014%=      5-min Rain = 0
KVA1 160403Z 30006KT 30/M01 A2994 RMK A01 T02951012  RH  014%=      5-min Rain = 0
KVA1 160404Z 31006KT 30/M01 A2994 RMK A01 T02961012  RH  014%=      5-min Rain = 0
KVA1 160405Z 30006KT 30/M01 A2994 RMK A01 T02961011  RH  014%=      5-min Rain = 0
KVA1 160406Z 30006KT 30/M01 A2994 RMK A01 T02961011  RH  014%=      5-min Rain = 0
KVA1 160407Z 30006KT 30/M01 A2994 RMK A01 T02951011  RH  014%=      5-min Rain = 0
KVA1 160408Z 30006KT 30/M01 A2994 RMK A01 T02951012  RH  014%=      5-min Rain = 0
KVA1 160409Z 30006KT 29/M01 A2994 RMK A01 T02941012  RH  014%=      5-min Rain = 0
KVA1 160410Z 30006KT 29/M01 A2994 RMK A01 T02941012  RH  014%=      5-min Rain = 0
KVA1 160411Z 30005KT 29/M01 A2994 RMK A01 T02931012  RH  014%=      5-min Rain = 0
KVA1 160412Z 30006KT 29/M01 A2994 RMK A01 T02931012  RH  014%=      5-min Rain = 0
KVA1 160413Z 30006KT 29/M01 A2994 RMK A01 T02921013  RH  014%=      5-min Rain = 0
KVA1 160414Z 30006KT 29/M01 A2994 RMK A01 T02921012  RH  014%=      5-min Rain = 0
KVA1 160415Z 30005KT 29/M01 A2994 RMK A01 T02921013  RH  014%=      5-min Rain = 0
KVA1 160416Z 30007KT 29/M01 A2994 RMK A01 T02921012  RH  014%=      5-min Rain = 0
KVA1 160417Z 30006KT 29/M01 A2994 RMK A01 T02921012  RH  014%=      5-min Rain = 0
KVA1 160418Z 30006KT 29/M01 A2994 RMK A01 T02911014  RH  014%=      5-min Rain = 0
KVA1 160419Z 30007KT 29/M01 A2994 RMK A01 T02911014  RH  014%=      5-min Rain = 0
KVA1 160420Z 30006KT 29/M01 A2994 RMK A01 T02921014  RH  014%=      5-min Rain = 0
KVA1 160421Z 30006KT 29/M01 A2994 RMK A01 T02921014  RH  014%=      5-min Rain = 0
KVA1 160422Z 30006KT 29/M01 A2994 RMK A01 T02921014  RH  014%=      5-min Rain = 0
KVA1 160423Z 30006KT 29/M01 A2995 RMK A01 T02931014  RH  014%=      5-min Rain = 0
KVA1 160424Z 30005KT 29/M01 A2995 RMK A01 T02921014  RH  014%=      5-min Rain = 0
KVA1 160425Z 30004KT 29/M02 A2995 RMK A01 T02921015  RH  014%=      5-min Rain = 0
KVA1 160426Z 30005KT 29/M01 A2995 RMK A01 T02911014  RH  014%=      5-min Rain = 0
KVA1 160427Z 30004KT 29/M01 A2995 RMK A01 T02901014  RH  014%=      5-min Rain = 0
KVA1 160428Z 30004KT 29/M01 A2995 RMK A01 T02891014  RH  014%=      5-min Rain = 0
KVA1 160429Z 30004KT 29/M01 A2995 RMK A01 T02881014  RH  014%=      5-min Rain = 0
KVA1 160430Z 30004KT 29/M01 A2995 RMK A01 T02881014  RH  014%=      5-min Rain = 0
KVA1 160431Z 29004KT 29/M01 A2995 RMK A01 T02871014  RH  014%=      5-min Rain = 0
KVA1 160432Z 28003KT 29/M01 A2995 RMK A01 T02871013  RH  014%=      5-min Rain = 0
KVA1 160433Z 25003KT 29/M01 A2995 RMK A01 T02851014  RH  014%=      5-min Rain = 0
KVA1 160434Z 25003KT 28/M01 A2995 RMK A01 T02841013  RH  014%=      5-min Rain = 0
KVA1 160435Z 25004KT 28/M01 A2995 RMK A01 T02821012  RH  015%=      5-min Rain = 0
KVA1 160436Z 25004KT 28/M01 A2995 RMK A01 T02801011  RH  015%=      5-min Rain = 0
KVA1 160437Z 26005KT 28/M01 A2995 RMK A01 T02781012  RH  015%=      5-min Rain = 0
KVA1 160438Z 26006KT 28/M01 A2995 RMK A01 T02761011  RH  015%=      5-min Rain = 0
KVA1 160439Z 26004KT 27/M01 A2995 RMK A01 T02741010  RH  016%=      5-min Rain = 0
KVA1 160440Z 27004KT 27/M01 A2995 RMK A01 T02721010  RH  016%=      5-min Rain = 0
KVA1 160441Z 26005KT 27/M01 A2995 RMK A01 T02721010  RH  016%=      5-min Rain = 0
KVA1 160442Z 26005KT 27/M01 A2995 RMK A01 T02711010  RH  016%=      5-min Rain = 0
KVA1 160443Z 26005KT 27/M01 A2995 RMK A01 T02711009  RH  016%=      5-min Rain = 0
KVA1 160444Z 26005KT 27/M01 A2996 RMK A01 T02701009  RH  016%=      5-min Rain = 0
KVA1 160445Z 25004KT 27/M01 A2995 RMK A01 T02691009  RH  016%=      5-min Rain = 0
KVA1 160446Z 25005KT 27/M01 A2996 RMK A01 T02681008  RH  016%=      5-min Rain = 0
KVA1 160447Z 25005KT 27/M01 A2996 RMK A01 T02671008  RH  016%=      5-min Rain = 0
KVA1 160448Z 25005KT 27/M01 A2996 RMK A01 T02651007  RH  017%=      5-min Rain = 0
KVA1 160449Z 26005KT 26/M01 A2996 RMK A01 T02641006  RH  017%=      5-min Rain = 0
KVA1 160450Z 26004KT 26/M01 A2996 RMK A01 T02631006  RH  017%=      5-min Rain = 0
KVA1 160451Z 26005KT 26/M01 A2996 RMK A01 T02631007  RH  017%=      5-min Rain = 0
KVA1 160452Z 26005KT 26/M01 A2996 RMK A01 T02621006  RH  017%=      5-min Rain = 0
KVA1 160453Z 27005KT 26/M01 A2996 RMK A01 T02611007  RH  017%=      5-min Rain = 0
KVA1 160454Z 26005KT 26/M01 A2996 RMK A01 T02611008  RH  017%=      5-min Rain = 0
KVA1 160455Z 26005KT 26/M01 A2996 RMK A01 T02621008  RH  017%=      5-min Rain = 0
KVA1 160456Z 26005KT 26/M01 A2996 RMK A01 T02631008  RH  017%=      5-min Rain = 0
KVA1 160457Z 26005KT 26/M01 A2996 RMK A01 T02621007  RH  017%=      5-min Rain = 0
KVA1 160458Z 26005KT 26/M01 A2996 RMK A01 T02611008  RH  017%=      5-min Rain = 0
KVA1 160459Z 26005KT 26/M01 A2996 RMK A01 T02601007  RH  017%=      5-min Rain = 0

Page generated in 0.1421 seconds.